Observation data for Weinert on 08/03/2020      Previous  Date  Next       Current Mesonet Observations  Soil Data  Daily Summary Page  Observations in Plain Language
KWE1 030500Z 11007KT 27/16 A3003 RMK A01 T02720158  RH  050%=      5-min Rain = 0
KWE1 030501Z 11007KT 27/16 A3003 RMK A01 T02720158  RH  050%=      5-min Rain = 0
KWE1 030502Z 11007KT 27/16 A3003 RMK A01 T02720158  RH  050%=      5-min Rain = 0
KWE1 030503Z 11007KT 27/16 A3003 RMK A01 T02720158  RH  050%=      5-min Rain = 0
KWE1 030504Z 11009KT 27/16 A3003 RMK A01 T02720158  RH  050%=      5-min Rain = 0
KWE1 030505Z 11008KT 27/16 A3003 RMK A01 T02730158  RH  050%=      5-min Rain = 0
KWE1 030506Z 11007KT 27/16 A3003 RMK A01 T02730158  RH  050%=      5-min Rain = 0
KWE1 030507Z 11007KT 27/16 A3003 RMK A01 T02730158  RH  050%=      5-min Rain = 0
KWE1 030508Z 11007KT 27/16 A3003 RMK A01 T02720158  RH  050%=      5-min Rain = 0
KWE1 030509Z 10007KT 27/16 A3003 RMK A01 T02720158  RH  050%=      5-min Rain = 0
KWE1 030510Z 10006KT 27/16 A3003 RMK A01 T02710158  RH  050%=      5-min Rain = 0
KWE1 030511Z 10006KT 27/16 A3003 RMK A01 T02710158  RH  050%=      5-min Rain = 0
KWE1 030512Z 10007KT 27/16 A3003 RMK A01 T02700158  RH  050%=      5-min Rain = 0
KWE1 030513Z 10006KT 27/16 A3003 RMK A01 T02700158  RH  050%=      5-min Rain = 0
KWE1 030514Z 10007KT 27/16 A3003 RMK A01 T02700158  RH  050%=      5-min Rain = 0
KWE1 030515Z 09007KT 27/16 A3003 RMK A01 T02700158  RH  051%=      5-min Rain = 0
KWE1 030516Z 09007KT 27/16 A3003 RMK A01 T02690159  RH  051%=      5-min Rain = 0
KWE1 030517Z 09008KT 27/16 A3003 RMK A01 T02680159  RH  051%=      5-min Rain = 0
KWE1 030518Z 10008KT 27/16 A3004 RMK A01 T02680159  RH  051%=      5-min Rain = 0
KWE1 030519Z 09007KT 27/16 A3004 RMK A01 T02680159  RH  051%=      5-min Rain = 0
KWE1 030520Z 10007KT 27/16 A3004 RMK A01 T02670159  RH  052%=      5-min Rain = 0
KWE1 030521Z 10006KT 27/16 A3004 RMK A01 T02660159  RH  052%=      5-min Rain = 0
KWE1 030522Z 09007KT 27/16 A3004 RMK A01 T02660159  RH  052%=      5-min Rain = 0
KWE1 030523Z 10007KT 27/16 A3004 RMK A01 T02660159  RH  052%=      5-min Rain = 0
KWE1 030524Z 09006KT 27/16 A3004 RMK A01 T02650159  RH  052%=      5-min Rain = 0
KWE1 030525Z 09006KT 26/16 A3004 RMK A01 T02640159  RH  052%=      5-min Rain = 0
KWE1 030526Z 10006KT 26/16 A3004 RMK A01 T02630159  RH  053%=      5-min Rain = 0
KWE1 030527Z 10006KT 26/16 A3004 RMK A01 T02630159  RH  053%=      5-min Rain = 0
KWE1 030528Z 10006KT 26/16 A3004 RMK A01 T02630159  RH  053%=      5-min Rain = 0
KWE1 030529Z 10006KT 26/16 A3004 RMK A01 T02620159  RH  053%=      5-min Rain = 0
KWE1 030530Z 09006KT 26/16 A3004 RMK A01 T02620159  RH  053%=      5-min Rain = 0
KWE1 030531Z 10005KT 26/16 A3004 RMK A01 T02620159  RH  053%=      5-min Rain = 0
KWE1 030532Z 10005KT 26/16 A3004 RMK A01 T02620159  RH  053%=      5-min Rain = 0
KWE1 030533Z 10005KT 26/16 A3004 RMK A01 T02610159  RH  053%=      5-min Rain = 0
KWE1 030534Z 10005KT 26/16 A3004 RMK A01 T02610159  RH  053%=      5-min Rain = 0
KWE1 030535Z 10006KT 26/16 A3004 RMK A01 T02610159  RH  053%=      5-min Rain = 0
KWE1 030536Z 10006KT 26/16 A3004 RMK A01 T02610159  RH  053%=      5-min Rain = 0
KWE1 030537Z 10005KT 26/16 A3004 RMK A01 T02610159  RH  053%=      5-min Rain = 0
KWE1 030538Z 10006KT 26/16 A3004 RMK A01 T02610159  RH  053%=      5-min Rain = 0
KWE1 030539Z 10006KT 26/16 A3004 RMK A01 T02610159  RH  053%=      5-min Rain = 0
KWE1 030540Z 10007KT 26/16 A3004 RMK A01 T02620159  RH  053%=      5-min Rain = 0
KWE1 030541Z 10007KT 26/16 A3004 RMK A01 T02620158  RH  053%=      5-min Rain = 0
KWE1 030542Z 10006KT 26/16 A3004 RMK A01 T02620159  RH  053%=      5-min Rain = 0
KWE1 030543Z 10007KT 26/16 A3004 RMK A01 T02620159  RH  053%=      5-min Rain = 0
KWE1 030544Z 10007KT 26/16 A3004 RMK A01 T02620159  RH  053%=      5-min Rain = 0
KWE1 030545Z 10006KT 26/16 A3004 RMK A01 T02620158  RH  053%=      5-min Rain = 0
KWE1 030546Z 10005KT 26/16 A3004 RMK A01 T02620158  RH  053%=      5-min Rain = 0
KWE1 030547Z 10006KT 26/16 A3004 RMK A01 T02620158  RH  053%=      5-min Rain = 0
KWE1 030548Z 10006KT 26/16 A3004 RMK A01 T02620159  RH  053%=      5-min Rain = 0
KWE1 030549Z 11006KT 26/16 A3004 RMK A01 T02620159  RH  053%=      5-min Rain = 0
KWE1 030550Z 10007KT 26/16 A3004 RMK A01 T02620159  RH  053%=      5-min Rain = 0
KWE1 030551Z 11007KT 26/16 A3004 RMK A01 T02610159  RH  053%=      5-min Rain = 0
KWE1 030552Z 10007KT 26/16 A3004 RMK A01 T02610159  RH  053%=      5-min Rain = 0
KWE1 030553Z 10006KT 26/16 A3004 RMK A01 T02610159  RH  053%=      5-min Rain = 0
KWE1 030554Z 11006KT 26/16 A3005 RMK A01 T02600159  RH  054%=      5-min Rain = 0
KWE1 030555Z 11006KT 26/16 A3005 RMK A01 T02600158  RH  054%=      5-min Rain = 0
KWE1 030556Z 10007KT 26/16 A3005 RMK A01 T02590158  RH  054%=      5-min Rain = 0
KWE1 030557Z 11006KT 26/16 A3005 RMK A01 T02590158  RH  054%=      5-min Rain = 0
KWE1 030558Z 10006KT 26/16 A3005 RMK A01 T02590159  RH  054%=      5-min Rain = 0
KWE1 030559Z 10005KT 26/16 A3005 RMK A01 T02590158  RH  054%=      5-min Rain = 0
KWE1 030600Z 11004KT 26/16 A3005 RMK A01 T02580158  RH  054%=      5-min Rain = 0
KWE1 030601Z 10005KT 26/16 A3005 RMK A01 T02580158  RH  054%=      5-min Rain = 0
KWE1 030602Z 11005KT 26/16 A3005 RMK A01 T02580159  RH  054%=      5-min Rain = 0
KWE1 030603Z 11004KT 26/16 A3005 RMK A01 T02570158  RH  054%=      5-min Rain = 0
KWE1 030604Z 11004KT 26/16 A3005 RMK A01 T02560158  RH  054%=      5-min Rain = 0
KWE1 030605Z 12004KT 26/16 A3005 RMK A01 T02560158  RH  055%=      5-min Rain = 0
KWE1 030606Z 12004KT 26/16 A3005 RMK A01 T02560158  RH  055%=      5-min Rain = 0
KWE1 030607Z 13005KT 26/16 A3005 RMK A01 T02550157  RH  055%=      5-min Rain = 0
KWE1 030608Z 13004KT 26/16 A3005 RMK A01 T02560158  RH  055%=      5-min Rain = 0
KWE1 030609Z 13005KT 26/16 A3005 RMK A01 T02550157  RH  055%=      5-min Rain = 0
KWE1 030610Z 13005KT 26/16 A3005 RMK A01 T02560157  RH  055%=      5-min Rain = 0
KWE1 030611Z 13004KT 26/16 A3005 RMK A01 T02550157  RH  054%=      5-min Rain = 0
KWE1 030612Z 12004KT 26/16 A3005 RMK A01 T02550157  RH  054%=      5-min Rain = 0
KWE1 030613Z 13005KT 26/16 A3005 RMK A01 T02550157  RH  055%=      5-min Rain = 0
KWE1 030614Z 13005KT 26/16 A3005 RMK A01 T02550157  RH  055%=      5-min Rain = 0
KWE1 030615Z 13006KT 25/16 A3005 RMK A01 T02540157  RH  055%=      5-min Rain = 0
KWE1 030616Z 12006KT 25/16 A3005 RMK A01 T02540158  RH  055%=      5-min Rain = 0
KWE1 030617Z 12006KT 25/16 A3005 RMK A01 T02540157  RH  055%=      5-min Rain = 0
KWE1 030618Z 12006KT 25/16 A3005 RMK A01 T02540158  RH  055%=      5-min Rain = 0
KWE1 030619Z 11005KT 25/16 A3005 RMK A01 T02540158  RH  055%=      5-min Rain = 0
KWE1 030620Z 11006KT 25/16 A3005 RMK A01 T02540158  RH  055%=      5-min Rain = 0
KWE1 030621Z 11004KT 25/16 A3005 RMK A01 T02540158  RH  055%=      5-min Rain = 0
KWE1 030622Z 11004KT 25/16 A3005 RMK A01 T02540159  RH  056%=      5-min Rain = 0
KWE1 030623Z 11005KT 25/16 A3005 RMK A01 T02530160  RH  056%=      5-min Rain = 0
KWE1 030624Z 11005KT 25/16 A3005 RMK A01 T02530159  RH  056%=      5-min Rain = 0
KWE1 030625Z 11004KT 25/16 A3005 RMK A01 T02520159  RH  056%=      5-min Rain = 0
KWE1 030626Z 11004KT 25/16 A3005 RMK A01 T02520159  RH  056%=      5-min Rain = 0
KWE1 030627Z 11004KT 25/16 A3005 RMK A01 T02520159  RH  056%=      5-min Rain = 0
KWE1 030628Z 11005KT 25/16 A3005 RMK A01 T02510159  RH  056%=      5-min Rain = 0
KWE1 030629Z 11004KT 25/16 A3005 RMK A01 T02510159  RH  056%=      5-min Rain = 0
KWE1 030630Z 11005KT 25/16 A3005 RMK A01 T02510158  RH  056%=      5-min Rain = 0
KWE1 030631Z 11005KT 25/16 A3005 RMK A01 T02510158  RH  056%=      5-min Rain = 0
KWE1 030632Z 11004KT 25/16 A3005 RMK A01 T02510158  RH  056%=      5-min Rain = 0
KWE1 030633Z 11004KT 25/16 A3005 RMK A01 T02510158  RH  056%=      5-min Rain = 0
KWE1 030634Z 11004KT 25/16 A3005 RMK A01 T02510158  RH  056%=      5-min Rain = 0
KWE1 030635Z 11005KT 25/16 A3005 RMK A01 T02510158  RH  056%=      5-min Rain = 0
KWE1 030636Z 10004KT 25/16 A3005 RMK A01 T02510157  RH  056%=      5-min Rain = 0
KWE1 030637Z 10004KT 25/16 A3005 RMK A01 T02510157  RH  056%=      5-min Rain = 0
KWE1 030638Z 10005KT 25/16 A3004 RMK A01 T02510157  RH  056%=      5-min Rain = 0
KWE1 030639Z 10005KT 25/16 A3004 RMK A01 T02510157  RH  056%=      5-min Rain = 0
KWE1 030640Z 10005KT 25/16 A3004 RMK A01 T02510157  RH  056%=      5-min Rain = 0
KWE1 030641Z 11004KT 25/16 A3004 RMK A01 T02510157  RH  056%=      5-min Rain = 0
KWE1 030642Z 10004KT 25/16 A3004 RMK A01 T02510157  RH  056%=      5-min Rain = 0
KWE1 030643Z 10004KT 25/16 A3004 RMK A01 T02510158  RH  056%=      5-min Rain = 0
KWE1 030644Z 10004KT 25/16 A3004 RMK A01 T02510157  RH  056%=      5-min Rain = 0
KWE1 030645Z 10003KT 25/16 A3004 RMK A01 T02510157  RH  056%=      5-min Rain = 0
KWE1 030646Z 10004KT 25/16 A3004 RMK A01 T02510157  RH  056%=      5-min Rain = 0
KWE1 030647Z 09003KT 25/16 A3004 RMK A01 T02500157  RH  056%=      5-min Rain = 0
KWE1 030648Z 09003KT 25/16 A3004 RMK A01 T02500157  RH  056%=      5-min Rain = 0
KWE1 030649Z 09004KT 25/16 A3004 RMK A01 T02490157  RH  056%=      5-min Rain = 0
KWE1 030650Z 08003KT 25/16 A3004 RMK A01 T02490157  RH  056%=      5-min Rain = 0
KWE1 030651Z 09003KT 25/16 A3004 RMK A01 T02490156  RH  056%=      5-min Rain = 0
KWE1 030652Z 10003KT 25/16 A3004 RMK A01 T02500157  RH  056%=      5-min Rain = 0
KWE1 030653Z 11003KT 25/16 A3004 RMK A01 T02490157  RH  057%=      5-min Rain = 0
KWE1 030654Z 11003KT 25/16 A3005 RMK A01 T02500158  RH  057%=      5-min Rain = 0
KWE1 030655Z 11003KT 25/16 A3004 RMK A01 T02490157  RH  056%=      5-min Rain = 0
KWE1 030656Z 12003KT 25/16 A3005 RMK A01 T02500157  RH  056%=      5-min Rain = 0
KWE1 030657Z 12003KT 25/16 A3005 RMK A01 T02510157  RH  056%=      5-min Rain = 0
KWE1 030658Z 12003KT 25/16 A3005 RMK A01 T02510157  RH  056%=      5-min Rain = 0
KWE1 030659Z 10002KT 25/16 A3005 RMK A01 T02510157  RH  056%=      5-min Rain = 0
KWE1 030700Z 11001KT 25/16 A3005 RMK A01 T02520157  RH  056%=      5-min Rain = 0
KWE1 030701Z 09001KT 25/16 A3005 RMK A01 T02520158  RH  056%=      5-min Rain = 0
KWE1 030702Z 07001KT 25/16 A3005 RMK A01 T02520158  RH  056%=      5-min Rain = 0
KWE1 030703Z 06001KT 25/16 A3005 RMK A01 T02510158  RH  056%=      5-min Rain = 0
KWE1 030704Z 07001KT 25/16 A3005 RMK A01 T02510158  RH  056%=      5-min Rain = 0
KWE1 030705Z 09000KT 25/16 A3005 RMK A01 T02500159  RH  057%=      5-min Rain = 0
KWE1 030706Z 05001KT 25/16 A3006 RMK A01 T02500158  RH  057%=      5-min Rain = 0
KWE1 030707Z 04001KT 25/16 A3006 RMK A01 T02500159  RH  057%=      5-min Rain = 0
KWE1 030708Z 05001KT 25/16 A3006 RMK A01 T02500159  RH  057%=      5-min Rain = 0
KWE1 030709Z 05001KT 25/16 A3006 RMK A01 T02500159  RH  057%=      5-min Rain = 0
KWE1 030710Z 08001KT 25/16 A3006 RMK A01 T02500159  RH  057%=      5-min Rain = 0
KWE1 030711Z 08001KT 25/16 A3006 RMK A01 T02500158  RH  057%=      5-min Rain = 0
KWE1 030712Z 09001KT 25/16 A3006 RMK A01 T02490158  RH  057%=      5-min Rain = 0
KWE1 030713Z 08001KT 25/16 A3006 RMK A01 T02490158  RH  057%=      5-min Rain = 0
KWE1 030714Z 08002KT 25/16 A3006 RMK A01 T02490158  RH  057%=      5-min Rain = 0
KWE1 030715Z 08002KT 25/16 A3006 RMK A01 T02490158  RH  057%=      5-min Rain = 0
KWE1 030716Z 08002KT 25/16 A3006 RMK A01 T02490158  RH  057%=      5-min Rain = 0
KWE1 030717Z 08002KT 25/16 A3006 RMK A01 T02480158  RH  057%=      5-min Rain = 0
KWE1 030718Z 07002KT 25/16 A3006 RMK A01 T02490159  RH  057%=      5-min Rain = 0
KWE1 030719Z 08002KT 25/16 A3006 RMK A01 T02480159  RH  057%=      5-min Rain = 0
KWE1 030720Z 09001KT 25/16 A3006 RMK A01 T02480158  RH  057%=      5-min Rain = 0
KWE1 030721Z 08002KT 25/16 A3006 RMK A01 T02480158  RH  057%=      5-min Rain = 0
KWE1 030722Z 08002KT 25/16 A3006 RMK A01 T02480159  RH  058%=      5-min Rain = 0
KWE1 030723Z 08002KT 25/16 A3006 RMK A01 T02480158  RH  058%=      5-min Rain = 0
KWE1 030724Z 08003KT 25/16 A3006 RMK A01 T02480158  RH  057%=      5-min Rain = 0
KWE1 030725Z 08002KT 25/16 A3006 RMK A01 T02480158  RH  057%=      5-min Rain = 0
KWE1 030726Z 08003KT 25/16 A3006 RMK A01 T02480158  RH  057%=      5-min Rain = 0
KWE1 030727Z 08003KT 25/16 A3006 RMK A01 T02480158  RH  057%=      5-min Rain = 0
KWE1 030728Z 08003KT 25/16 A3006 RMK A01 T02480158  RH  057%=      5-min Rain = 0
KWE1 030729Z 07003KT 25/16 A3006 RMK A01 T02480158  RH  057%=      5-min Rain = 0
KWE1 030730Z 07003KT 25/16 A3006 RMK A01 T02490159  RH  057%=      5-min Rain = 0
KWE1 030731Z 07003KT 25/16 A3006 RMK A01 T02480159  RH  057%=      5-min Rain = 0
KWE1 030732Z 06002KT 25/16 A3006 RMK A01 T02480159  RH  057%=      5-min Rain = 0
KWE1 030733Z 04001KT 25/16 A3006 RMK A01 T02480159  RH  057%=      5-min Rain = 0
KWE1 030734Z 01002KT 25/16 A3006 RMK A01 T02490159  RH  057%=      5-min Rain = 0
KWE1 030735Z 00003KT 25/16 A3007 RMK A01 T02480158  RH  057%=      5-min Rain = 0
KWE1 030736Z 36003KT 25/16 A3007 RMK A01 T02490159  RH  057%=      5-min Rain = 0
KWE1 030737Z 35003KT 25/16 A3007 RMK A01 T02490160  RH  058%=      5-min Rain = 0
KWE1 030738Z 35003KT 25/16 A3007 RMK A01 T02490161  RH  058%=      5-min Rain = 0
KWE1 030739Z 35004KT 25/16 A3007 RMK A01 T02490161  RH  058%=      5-min Rain = 0
KWE1 030740Z 35004KT 25/16 A3007 RMK A01 T02490161  RH  058%=      5-min Rain = 0
KWE1 030741Z 35004KT 25/16 A3007 RMK A01 T02490161  RH  058%=      5-min Rain = 0
KWE1 030742Z 34004KT 25/16 A3007 RMK A01 T02490161  RH  058%=      5-min Rain = 0
KWE1 030743Z 34004KT 25/16 A3007 RMK A01 T02480161  RH  058%=      5-min Rain = 0
KWE1 030744Z 34004KT 25/16 A3008 RMK A01 T02490162  RH  059%=      5-min Rain = 0
KWE1 030745Z 34004KT 25/16 A3008 RMK A01 T02480162  RH  059%=      5-min Rain = 0
KWE1 030746Z 34004KT 25/16 A3008 RMK A01 T02480162  RH  059%=      5-min Rain = 0
KWE1 030747Z 34004KT 25/16 A3008 RMK A01 T02480163  RH  059%=      5-min Rain = 0
KWE1 030748Z 34003KT 25/16 A3008 RMK A01 T02480163  RH  059%=      5-min Rain = 0
KWE1 030749Z 34002KT 25/16 A3008 RMK A01 T02470162  RH  059%=      5-min Rain = 0
KWE1 030750Z 34002KT 25/16 A3008 RMK A01 T02470162  RH  059%=      5-min Rain = 0
KWE1 030751Z 33001KT 25/16 A3008 RMK A01 T02470162  RH  059%=      5-min Rain = 0
KWE1 030752Z 00000KT 25/16 A3008 RMK A01 T02470162  RH  059%=      5-min Rain = 0
KWE1 030753Z 34000KT 25/16 A3008 RMK A01 T02470162  RH  059%=      5-min Rain = 0
KWE1 030754Z 34001KT 25/16 A3008 RMK A01 T02470162  RH  059%=      5-min Rain = 0
KWE1 030755Z 32002KT 25/16 A3008 RMK A01 T02470163  RH  059%=      5-min Rain = 0
KWE1 030756Z 31002KT 25/16 A3008 RMK A01 T02470163  RH  059%=      5-min Rain = 0
KWE1 030757Z 32003KT 25/16 A3008 RMK A01 T02470163  RH  059%=      5-min Rain = 0
KWE1 030758Z 32003KT 25/16 A3008 RMK A01 T02470163  RH  060%=      5-min Rain = 0
KWE1 030759Z 32003KT 25/16 A3008 RMK A01 T02470163  RH  060%=      5-min Rain = 0
KWE1 030800Z 32003KT 25/16 A3008 RMK A01 T02470164  RH  060%=      5-min Rain = 0
KWE1 030801Z 33003KT 25/16 A3009 RMK A01 T02470163  RH  060%=      5-min Rain = 0
KWE1 030802Z 33003KT 25/16 A3009 RMK A01 T02470163  RH  060%=      5-min Rain = 0
KWE1 030803Z 34002KT 25/16 A3009 RMK A01 T02470163  RH  060%=      5-min Rain = 0
KWE1 030804Z 35003KT 25/16 A3009 RMK A01 T02470163  RH  060%=      5-min Rain = 0
KWE1 030805Z 35003KT 25/16 A3009 RMK A01 T02470164  RH  060%=      5-min Rain = 0
KWE1 030806Z 35003KT 25/16 A3009 RMK A01 T02470164  RH  060%=      5-min Rain = 0
KWE1 030807Z 35003KT 25/16 A3009 RMK A01 T02470164  RH  060%=      5-min Rain = 0
KWE1 030808Z 35004KT 25/16 A3009 RMK A01 T02470164  RH  060%=      5-min Rain = 0
KWE1 030809Z 35004KT 25/16 A3009 RMK A01 T02470164  RH  060%=      5-min Rain = 0
KWE1 030810Z 34005KT 25/16 A3009 RMK A01 T02480164  RH  060%=      5-min Rain = 0
KWE1 030811Z 33005KT 25/16 A301 RMK A01 T02480164  RH  059%=      5-min Rain = 0
KWE1 030812Z 33005KT 25/16 A301 RMK A01 T02480164  RH  059%=      5-min Rain = 0
KWE1 030813Z 33005KT 25/16 A301 RMK A01 T02490164  RH  059%=      5-min Rain = 0
KWE1 030814Z 33005KT 25/17 A301 RMK A01 T02500165  RH  059%=      5-min Rain = 0
KWE1 030815Z 33005KT 25/17 A301 RMK A01 T02500167  RH  060%=      5-min Rain = 0
KWE1 030816Z 32005KT 25/17 A301 RMK A01 T02500167  RH  060%=      5-min Rain = 0
KWE1 030817Z 32005KT 25/17 A301 RMK A01 T02500168  RH  061%=      5-min Rain = 0
KWE1 030818Z 32004KT 25/17 A301 RMK A01 T02490169  RH  061%=      5-min Rain = 0
KWE1 030819Z 32005KT 25/17 A301 RMK A01 T02490169  RH  061%=      5-min Rain = 0
KWE1 030820Z 33005KT 25/17 A301 RMK A01 T02490169  RH  061%=      5-min Rain = 0
KWE1 030821Z 32005KT 25/17 A301 RMK A01 T02480169  RH  061%=      5-min Rain = 0
KWE1 030822Z 33005KT 25/17 A301 RMK A01 T02490169  RH  061%=      5-min Rain = 0
KWE1 030823Z 32005KT 25/17 A301 RMK A01 T02480169  RH  061%=      5-min Rain = 0
KWE1 030824Z 32005KT 25/17 A301 RMK A01 T02490169  RH  061%=      5-min Rain = 0
KWE1 030825Z 33004KT 25/17 A3009 RMK A01 T02480169  RH  061%=      5-min Rain = 0
KWE1 030826Z 32004KT 25/17 A3009 RMK A01 T02480169  RH  061%=      5-min Rain = 0
KWE1 030827Z 32004KT 25/17 A3009 RMK A01 T02480169  RH  061%=      5-min Rain = 0
KWE1 030828Z 33005KT 25/17 A3009 RMK A01 T02490169  RH  061%=      5-min Rain = 0
KWE1 030829Z 33005KT 25/17 A3009 RMK A01 T02490169  RH  061%=      5-min Rain = 0
KWE1 030830Z 32004KT 25/17 A3009 RMK A01 T02480168  RH  061%=      5-min Rain = 0
KWE1 030831Z 33005KT 25/17 A3009 RMK A01 T02480168  RH  061%=      5-min Rain = 0
KWE1 030832Z 33004KT 25/17 A3009 RMK A01 T02490169  RH  061%=      5-min Rain = 0
KWE1 030833Z 33005KT 25/17 A3009 RMK A01 T02490169  RH  061%=      5-min Rain = 0
KWE1 030834Z 34004KT 25/17 A3009 RMK A01 T02480169  RH  061%=      5-min Rain = 0
KWE1 030835Z 34004KT 25/17 A3009 RMK A01 T02480169  RH  062%=      5-min Rain = 0
KWE1 030836Z 35005KT 25/17 A3009 RMK A01 T02470169  RH  062%=      5-min Rain = 0
KWE1 030837Z 35005KT 25/17 A3009 RMK A01 T02470170  RH  062%=      5-min Rain = 0
KWE1 030838Z 36005KT 25/17 A3009 RMK A01 T02470170  RH  062%=      5-min Rain = 0
KWE1 030839Z 35005KT 25/17 A3009 RMK A01 T02460170  RH  063%=      5-min Rain = 0
KWE1 030840Z 36006KT 25/17 A3009 RMK A01 T02460171  RH  063%=      5-min Rain = 0
KWE1 030841Z 00005KT 25/17 A3009 RMK A01 T02460171  RH  063%=      5-min Rain = 0
KWE1 030842Z 00006KT 25/17 A3009 RMK A01 T02450171  RH  063%=      5-min Rain = 0
KWE1 030843Z 00005KT 25/17 A3009 RMK A01 T02450171  RH  063%=      5-min Rain = 0
KWE1 030844Z 00005KT 25/17 A3009 RMK A01 T02450172  RH  064%=      5-min Rain = 0
KWE1 030845Z 36005KT 25/17 A3009 RMK A01 T02450172  RH  064%=      5-min Rain = 0
KWE1 030846Z 35005KT 25/17 A3009 RMK A01 T02450172  RH  064%=      5-min Rain = 0
KWE1 030847Z 33006KT 24/17 A3009 RMK A01 T02440172  RH  064%=      5-min Rain = 0
KWE1 030848Z 32006KT 24/17 A301 RMK A01 T02440173  RH  064%=      5-min Rain = 0
KWE1 030849Z 31007KT 24/17 A301 RMK A01 T02440173  RH  064%=      5-min Rain = 0
KWE1 030850Z 31008KT 24/17 A301 RMK A01 T02440174  RH  065%=      5-min Rain = 0
KWE1 030851Z 32007KT 24/18 A301 RMK A01 T02440175  RH  065%=      5-min Rain = 0
KWE1 030852Z 31007KT 24/18 A301 RMK A01 T02440175  RH  065%=      5-min Rain = 0
KWE1 030853Z 31006KT 24/18 A301 RMK A01 T02440175  RH  065%=      5-min Rain = 0
KWE1 030854Z 32006KT 24/18 A301 RMK A01 T02440175  RH  065%=      5-min Rain = 0
KWE1 030855Z 32007KT 25/18 A301 RMK A01 T02450175  RH  065%=      5-min Rain = 0
KWE1 030856Z 32009KT 24/17 A301 RMK A01 T02440174  RH  065%=      5-min Rain = 0
KWE1 030857Z 32007KT 25/17 A301 RMK A01 T02450174  RH  064%=      5-min Rain = 0
KWE1 030858Z 31008KT 25/17 A301 RMK A01 T02450173  RH  064%=      5-min Rain = 0
KWE1 030859Z 30008KT 25/17 A301 RMK A01 T02460172  RH  064%=      5-min Rain = 0
KWE1 030900Z 30007KT 25/17 A301 RMK A01 T02470172  RH  063%=      5-min Rain = 0
KWE1 030901Z 29006KT 25/17 A301 RMK A01 T02470172  RH  063%=      5-min Rain = 0
KWE1 030902Z 30006KT 25/17 A301 RMK A01 T02470172  RH  063%=      5-min Rain = 0
KWE1 030903Z 30006KT 25/17 A301 RMK A01 T02470172  RH  063%=      5-min Rain = 0
KWE1 030904Z 31007KT 25/17 A301 RMK A01 T02480172  RH  063%=      5-min Rain = 0
KWE1 030905Z 31008KT 25/17 A301 RMK A01 T02480172  RH  062%=      5-min Rain = 0
KWE1 030906Z 31008KT 25/17 A301 RMK A01 T02490171  RH  062%=      5-min Rain = 0
KWE1 030907Z 31008KT 25/17 A3011 RMK A01 T02500171  RH  062%=      5-min Rain = 0
KWE1 030908Z 30011KT 25/17 A3011 RMK A01 T02500171  RH  061%=      5-min Rain = 0
KWE1 030909Z 29011KT 25/17 A3011 RMK A01 T02510171  RH  061%=      5-min Rain = 0
KWE1 030910Z 30008KT 25/17 A3011 RMK A01 T02510172  RH  061%=      5-min Rain = 0
KWE1 030911Z 30007KT 25/17 A3011 RMK A01 T02510172  RH  062%=      5-min Rain = 0
KWE1 030912Z 30009KT 25/17 A3011 RMK A01 T02510173  RH  062%=      5-min Rain = 0
KWE1 030913Z 30007KT 25/17 A3011 RMK A01 T02500173  RH  062%=      5-min Rain = 0
KWE1 030914Z 30008KT 25/17 A3011 RMK A01 T02500173  RH  062%=      5-min Rain = 0
KWE1 030915Z 30009KT 25/17 A3011 RMK A01 T02500173  RH  062%=      5-min Rain = 0
KWE1 030916Z 30010KT 25/17 A3011 RMK A01 T02500173  RH  062%=      5-min Rain = 0
KWE1 030917Z 30009G14KT 25/17 A3011 RMK A01 T02490173  RH  062%=      5-min Rain = 0
KWE1 030918Z 29009KT 25/17 A3011 RMK A01 T02490172  RH  062%=      5-min Rain = 0
KWE1 030919Z 28010KT 25/17 A3011 RMK A01 T02490173  RH  063%=      5-min Rain = 0
KWE1 030920Z 28009KT 25/17 A3011 RMK A01 T02480173  RH  063%=      5-min Rain = 0
KWE1 030921Z 27010KT 25/17 A3011 RMK A01 T02470173  RH  063%=      5-min Rain = 0
KWE1 030922Z 28009KT 25/17 A3011 RMK A01 T02460171  RH  063%=      5-min Rain = 0
KWE1 030923Z 28010KT 25/17 A3011 RMK A01 T02460171  RH  063%=      5-min Rain = 0
KWE1 030924Z 25008KT 25/17 A3011 RMK A01 T02460172  RH  063%=      5-min Rain = 0
KWE1 030925Z 25011KT 25/17 A3011 RMK A01 T02460170  RH  063%=      5-min Rain = 0
KWE1 030926Z 26012KT 25/17 A3011 RMK A01 T02470170  RH  062%=      5-min Rain = 0
KWE1 030927Z 26011KT 25/17 A301 RMK A01 T02470169  RH  062%=      5-min Rain = 0
KWE1 030928Z 26011KT 25/17 A301 RMK A01 T02480169  RH  062%=      5-min Rain = 0
KWE1 030929Z 26008KT 25/17 A301 RMK A01 T02470170  RH  062%=      5-min Rain = 0
KWE1 030930Z 27008KT 25/17 A301 RMK A01 T02470170  RH  062%=      5-min Rain = 0
KWE1 030931Z 27010KT 25/17 A301 RMK A01 T02460171  RH  063%=      5-min Rain = 0
KWE1 030932Z 27009KT 24/17 A301 RMK A01 T02440172  RH  064%=      5-min Rain = 0
KWE1 030933Z 27008KT 24/17 A301 RMK A01 T02420172  RH  065%=      5-min Rain = 0
KWE1 030934Z 26009KT 24/17 A301 RMK A01 T02410173  RH  065%=      5-min Rain = 0
KWE1 030935Z 26009KT 24/17 A301 RMK A01 T02410172  RH  066%=      5-min Rain = 0
KWE1 030936Z 25008KT 24/17 A301 RMK A01 T02400172  RH  066%=      5-min Rain = 0
KWE1 030937Z 26009KT 24/17 A301 RMK A01 T02400172  RH  066%=      5-min Rain = 0
KWE1 030938Z 26009KT 24/17 A301 RMK A01 T02410173  RH  066%=      5-min Rain = 0
KWE1 030939Z 26011KT 24/17 A301 RMK A01 T02400173  RH  066%=      5-min Rain = 0
KWE1 030940Z 26008KT 24/17 A301 RMK A01 T02390174  RH  067%=      5-min Rain = 0
KWE1 030941Z 26008KT 24/17 A301 RMK A01 T02380174  RH  067%=      5-min Rain = 0
KWE1 030942Z 26009KT 24/18 A301 RMK A01 T02380175  RH  068%=      5-min Rain = 0
KWE1 030943Z 25008KT 24/18 A301 RMK A01 T02380175  RH  068%=      5-min Rain = 0
KWE1 030944Z 25009KT 24/18 A301 RMK A01 T02380176  RH  068%=      5-min Rain = 0
KWE1 030945Z 26009KT 24/18 A301 RMK A01 T02370176  RH  069%=      5-min Rain = 0
KWE1 030946Z 25008KT 24/18 A301 RMK A01 T02380177  RH  069%=      5-min Rain = 0
KWE1 030947Z 25009KT 24/18 A301 RMK A01 T02380178  RH  069%=      5-min Rain = 0
KWE1 030948Z 25010KT 24/18 A301 RMK A01 T02380178  RH  069%=      5-min Rain = 0
KWE1 030949Z 25011KT 24/18 A3009 RMK A01 T02380177  RH  069%=      5-min Rain = 0
KWE1 030950Z 26011KT 24/18 A301 RMK A01 T02380177  RH  068%=      5-min Rain = 0
KWE1 030951Z 26010KT 24/18 A3009 RMK A01 T02390178  RH  069%=      5-min Rain = 0
KWE1 030952Z 26011G16KT 24/18 A3009 RMK A01 T02380178  RH  069%=      5-min Rain = 0
KWE1 030953Z 26012KT 24/18 A3009 RMK A01 T02380175  RH  068%=      5-min Rain = 0
KWE1 030954Z 27010KT 24/18 A3009 RMK A01 T02380176  RH  068%=      5-min Rain = 0
KWE1 030955Z 27009KT 24/18 A3009 RMK A01 T02380175  RH  068%=      5-min Rain = 0
KWE1 030956Z 27010KT 24/18 A3009 RMK A01 T02380177  RH  069%=      5-min Rain = 0
KWE1 030957Z 27011KT 24/18 A3009 RMK A01 T02360176  RH  069%=      5-min Rain = 0
KWE1 030958Z 27009KT 24/18 A3009 RMK A01 T02350177  RH  070%=      5-min Rain = 0
KWE1 030959Z 29008KT 23/18 A3009 RMK A01 T02340177  RH  070%=      5-min Rain = 0
KWE1 031000Z 29009KT 23/18 A3009 RMK A01 T02330178  RH  071%=      5-min Rain = 0
KWE1 031001Z 29009KT 23/18 A3009 RMK A01 T02330179  RH  072%=      5-min Rain = 0
KWE1 031002Z 28008KT 23/18 A3009 RMK A01 T02310179  RH  072%=      5-min Rain = 0
KWE1 031003Z 29008KT 23/18 A3009 RMK A01 T02300180  RH  073%=      5-min Rain = 0
KWE1 031004Z 29009KT 23/18 A3009 RMK A01 T02290181  RH  075%=      5-min Rain = 0
KWE1 031005Z 29008KT 23/18 A3009 RMK A01 T02270181  RH  075%=      5-min Rain = 0
KWE1 031006Z 30006KT 23/18 A3009 RMK A01 T02260182  RH  076%=      5-min Rain = 0
KWE1 031007Z 28006KT 23/18 A3009 RMK A01 T02250182  RH  077%=      5-min Rain = 0
KWE1 031008Z 28006KT 22/18 A3009 RMK A01 T02230181  RH  077%=      5-min Rain = 0
KWE1 031009Z 27005KT 22/18 A3008 RMK A01 T02220179  RH  077%=      5-min Rain = 0.01
KWE1 031010Z 27005KT 22/18 A3008 RMK A01 T02210179  RH  077%=      5-min Rain = 0
KWE1 031011Z 27006KT 22/18 A3008 RMK A01 T02190180  RH  078%=      5-min Rain = 0
KWE1 031012Z 25007KT 22/18 A3008 RMK A01 T02180176  RH  077%=      5-min Rain = 0
KWE1 031013Z 27005KT 22/18 A3008 RMK A01 T02200175  RH  076%=      5-min Rain = 0
KWE1 031014Z 28005KT 22/18 A3008 RMK A01 T02220175  RH  075%=      5-min Rain = 0.01
KWE1 031015Z 27005KT 22/18 A3008 RMK A01 T02220179  RH  076%=      5-min Rain = 0
KWE1 031016Z 27004KT 22/18 A3008 RMK A01 T02200180  RH  078%=      5-min Rain = 0
KWE1 031017Z 27003KT 22/18 A3008 RMK A01 T02190178  RH  078%=      5-min Rain = 0
KWE1 031018Z 26002KT 22/18 A3007 RMK A01 T02190177  RH  077%=      5-min Rain = 0
KWE1 031019Z 25003KT 22/18 A3007 RMK A01 T02190177  RH  077%=      5-min Rain = 0
KWE1 031020Z 24003KT 22/18 A3007 RMK A01 T02200177  RH  076%=      5-min Rain = 0
KWE1 031021Z 24003KT 22/17 A3007 RMK A01 T02210173  RH  074%=      5-min Rain = 0
KWE1 031022Z 24003KT 22/18 A3007 RMK A01 T02220175  RH  075%=      5-min Rain = 0
KWE1 031023Z 24002KT 22/17 A3007 RMK A01 T02230174  RH  074%=      5-min Rain = 0
KWE1 031024Z 23002KT 22/17 A3007 RMK A01 T02230174  RH  074%=      5-min Rain = 0
KWE1 031025Z 22003KT 22/18 A3006 RMK A01 T02240175  RH  074%=      5-min Rain = 0
KWE1 031026Z 21004KT 23/18 A3006 RMK A01 T02250179  RH  075%=      5-min Rain = 0
KWE1 031027Z 21004KT 23/18 A3006 RMK A01 T02250181  RH  076%=      5-min Rain = 0
KWE1 031028Z 21003KT 23/18 A3006 RMK A01 T02250183  RH  077%=      5-min Rain = 0
KWE1 031029Z 19002KT 23/19 A3006 RMK A01 T02250185  RH  078%=      5-min Rain = 0
KWE1 031030Z 15001KT 23/19 A3007 RMK A01 T02250188  RH  080%=      5-min Rain = 0
KWE1 031031Z 11003KT 22/19 A3007 RMK A01 T02240188  RH  080%=      5-min Rain = 0
KWE1 031032Z 10004KT 22/19 A3007 RMK A01 T02220185  RH  079%=      5-min Rain = 0
KWE1 031033Z 08004KT 22/19 A3007 RMK A01 T02210185  RH  080%=      5-min Rain = 0
KWE1 031034Z 07005KT 22/18 A3007 RMK A01 T02200181  RH  078%=      5-min Rain = 0.01
KWE1 031035Z 06005KT 22/18 A3007 RMK A01 T02200177  RH  076%=      5-min Rain = 0
KWE1 031036Z 05006KT 22/18 A3007 RMK A01 T02210178  RH  077%=      5-min Rain = 0
KWE1 031037Z 05006KT 22/18 A3007 RMK A01 T02220179  RH  077%=      5-min Rain = 0
KWE1 031038Z 04005KT 22/18 A3007 RMK A01 T02230180  RH  077%=      5-min Rain = 0
KWE1 031039Z 04004KT 22/18 A3007 RMK A01 T02220180  RH  077%=      5-min Rain = 0
KWE1 031040Z 03003KT 22/18 A3007 RMK A01 T02220181  RH  077%=      5-min Rain = 0
KWE1 031041Z 03004KT 22/18 A3007 RMK A01 T02220182  RH  078%=      5-min Rain = 0
KWE1 031042Z 02004KT 22/18 A3007 RMK A01 T02220181  RH  077%=      5-min Rain = 0
KWE1 031043Z 02004KT 22/18 A3007 RMK A01 T02220182  RH  078%=      5-min Rain = 0
KWE1 031044Z 02003KT 22/18 A3007 RMK A01 T02220184  RH  079%=      5-min Rain = 0
KWE1 031045Z 03003KT 22/19 A3007 RMK A01 T02220185  RH  079%=      5-min Rain = 0
KWE1 031046Z 05002KT 22/18 A3007 RMK A01 T02210184  RH  079%=      5-min Rain = 0
KWE1 031047Z 02002KT 22/18 A3007 RMK A01 T02210180  RH  078%=      5-min Rain = 0
KWE1 031048Z 36003KT 22/18 A3007 RMK A01 T02220178  RH  076%=      5-min Rain = 0
KWE1 031049Z 00003KT 22/18 A3007 RMK A01 T02240180  RH  076%=      5-min Rain = 0
KWE1 031050Z 04002KT 23/18 A3007 RMK A01 T02250179  RH  075%=      5-min Rain = 0
KWE1 031051Z 06003KT 23/18 A3007 RMK A01 T02270178  RH  074%=      5-min Rain = 0
KWE1 031052Z 06004KT 23/18 A3007 RMK A01 T02280179  RH  074%=      5-min Rain = 0
KWE1 031053Z 05005KT 23/18 A3007 RMK A01 T02280181  RH  075%=      5-min Rain = 0
KWE1 031054Z 04006KT 23/18 A3007 RMK A01 T02270183  RH  076%=      5-min Rain = 0
KWE1 031055Z 04005KT 23/18 A3007 RMK A01 T02250182  RH  077%=      5-min Rain = 0
KWE1 031056Z 04005KT 22/18 A3007 RMK A01 T02240181  RH  077%=      5-min Rain = 0
KWE1 031057Z 04005KT 22/18 A3007 RMK A01 T02230180  RH  076%=      5-min Rain = 0
KWE1 031058Z 04005KT 22/18 A3007 RMK A01 T02230181  RH  077%=      5-min Rain = 0
KWE1 031059Z 04005KT 22/18 A3007 RMK A01 T02230180  RH  076%=      5-min Rain = 0
KWE1 031100Z 04006KT 22/18 A3007 RMK A01 T02230180  RH  076%=      5-min Rain = 0
KWE1 031101Z 04006KT 22/18 A3007 RMK A01 T02230179  RH  076%=      5-min Rain = 0
KWE1 031102Z 05006KT 22/18 A3007 RMK A01 T02230179  RH  076%=      5-min Rain = 0
KWE1 031103Z 05006KT 22/18 A3007 RMK A01 T02230179  RH  076%=      5-min Rain = 0
KWE1 031104Z 05006KT 22/18 A3007 RMK A01 T02230179  RH  076%=      5-min Rain = 0
KWE1 031105Z 04005KT 22/18 A3007 RMK A01 T02230179  RH  076%=      5-min Rain = 0
KWE1 031106Z 04006KT 22/18 A3007 RMK A01 T02240179  RH  076%=      5-min Rain = 0
KWE1 031107Z 05006KT 22/18 A3007 RMK A01 T02240179  RH  076%=      5-min Rain = 0
KWE1 031108Z 04005KT 22/18 A3007 RMK A01 T02240179  RH  076%=      5-min Rain = 0
KWE1 031109Z 04005KT 22/18 A3007 RMK A01 T02240180  RH  076%=      5-min Rain = 0
KWE1 031110Z 04004KT 22/18 A3007 RMK A01 T02240180  RH  076%=      5-min Rain = 0
KWE1 031111Z 04004KT 22/18 A3007 RMK A01 T02240181  RH  077%=      5-min Rain = 0
KWE1 031112Z 04005KT 22/18 A3007 RMK A01 T02230181  RH  077%=      5-min Rain = 0
KWE1 031113Z 04005KT 22/18 A3007 RMK A01 T02230183  RH  078%=      5-min Rain = 0
KWE1 031114Z 03005KT 22/18 A3007 RMK A01 T02220183  RH  079%=      5-min Rain = 0
KWE1 031115Z 04006KT 22/18 A3007 RMK A01 T02210184  RH  079%=      5-min Rain = 0
KWE1 031116Z 04005KT 22/18 A3007 RMK A01 T02210184  RH  080%=      5-min Rain = 0
KWE1 031117Z 04006KT 22/19 A3007 RMK A01 T02200185  RH  080%=      5-min Rain = 0
KWE1 031118Z 05005KT 22/18 A3007 RMK A01 T02200183  RH  079%=      5-min Rain = 0
KWE1 031119Z 04005KT 22/18 A3007 RMK A01 T02210182  RH  079%=      5-min Rain = 0
KWE1 031120Z 04005KT 22/18 A3007 RMK A01 T02210181  RH  078%=      5-min Rain = 0
KWE1 031121Z 04005KT 22/18 A3007 RMK A01 T02220182  RH  078%=      5-min Rain = 0
KWE1 031122Z 03005KT 22/18 A3008 RMK A01 T02220182  RH  078%=      5-min Rain = 0
KWE1 031123Z 02005KT 22/18 A3008 RMK A01 T02220184  RH  079%=      5-min Rain = 0
KWE1 031124Z 02006KT 22/19 A3008 RMK A01 T02210185  RH  080%=      5-min Rain = 0
KWE1 031125Z 02007KT 22/19 A3008 RMK A01 T02190185  RH  081%=      5-min Rain = 0
KWE1 031126Z 02006KT 22/18 A3008 RMK A01 T02190184  RH  081%=      5-min Rain = 0
KWE1 031127Z 02005KT 22/18 A3008 RMK A01 T02180184  RH  081%=      5-min Rain = 0
KWE1 031128Z 01006KT 22/18 A3008 RMK A01 T02180184  RH  081%=      5-min Rain = 0
KWE1 031129Z 01007KT 22/18 A3008 RMK A01 T02180183  RH  081%=      5-min Rain = 0
KWE1 031130Z 02006KT 22/18 A3008 RMK A01 T02190183  RH  080%=      5-min Rain = 0
KWE1 031131Z 02007KT 22/18 A3008 RMK A01 T02200182  RH  079%=      5-min Rain = 0
KWE1 031132Z 02006KT 22/18 A3008 RMK A01 T02210182  RH  079%=      5-min Rain = 0
KWE1 031133Z 02006KT 22/18 A3008 RMK A01 T02210183  RH  079%=      5-min Rain = 0
KWE1 031134Z 03007KT 22/18 A3008 RMK A01 T02200183  RH  079%=      5-min Rain = 0
KWE1 031135Z 03007KT 22/18 A3008 RMK A01 T02200182  RH  079%=      5-min Rain = 0
KWE1 031136Z 03006KT 22/18 A3008 RMK A01 T02200181  RH  078%=      5-min Rain = 0
KWE1 031137Z 04006KT 22/18 A3008 RMK A01 T02200179  RH  078%=      5-min Rain = 0
KWE1 031138Z 04006KT 22/18 A3008 RMK A01 T02210178  RH  077%=      5-min Rain = 0
KWE1 031139Z 04005KT 22/18 A3008 RMK A01 T02220178  RH  076%=      5-min Rain = 0
KWE1 031140Z 03005KT 22/18 A3008 RMK A01 T02220177  RH  076%=      5-min Rain = 0
KWE1 031141Z 03005KT 22/18 A3008 RMK A01 T02230178  RH  075%=      5-min Rain = 0
KWE1 031142Z 02005KT 22/18 A3008 RMK A01 T02230179  RH  076%=      5-min Rain = 0
KWE1 031143Z 02006KT 22/18 A3008 RMK A01 T02220180  RH  077%=      5-min Rain = 0
KWE1 031144Z 01006KT 22/18 A3008 RMK A01 T02210183  RH  079%=      5-min Rain = 0
KWE1 031145Z 01006KT 22/18 A3008 RMK A01 T02190182  RH  079%=      5-min Rain = 0
KWE1 031146Z 01007KT 22/18 A3008 RMK A01 T02190183  RH  080%=      5-min Rain = 0
KWE1 031147Z 02008KT 22/18 A3008 RMK A01 T02180183  RH  080%=      5-min Rain = 0
KWE1 031148Z 02008KT 22/18 A3008 RMK A01 T02190182  RH  080%=      5-min Rain = 0
KWE1 031149Z 02008KT 22/18 A3008 RMK A01 T02190182  RH  079%=      5-min Rain = 0
KWE1 031150Z 02009KT 22/18 A3008 RMK A01 T02190183  RH  080%=      5-min Rain = 0
KWE1 031151Z 02009KT 22/18 A3008 RMK A01 T02190183  RH  080%=      5-min Rain = 0
KWE1 031152Z 02009KT 22/18 A3008 RMK A01 T02190183  RH  080%=      5-min Rain = 0
KWE1 031153Z 02008KT 22/18 A3008 RMK A01 T02190183  RH  080%=      5-min Rain = 0
KWE1 031154Z 02008KT 22/18 A3008 RMK A01 T02190183  RH  080%=      5-min Rain = 0
KWE1 031155Z 02008KT 22/18 A3008 RMK A01 T02190183  RH  080%=      5-min Rain = 0
KWE1 031156Z 03007KT 22/18 A3008 RMK A01 T02200183  RH  080%=      5-min Rain = 0
KWE1 031157Z 03007KT 22/18 A3007 RMK A01 T02200183  RH  079%=      5-min Rain = 0
KWE1 031158Z 03008KT 22/18 A3007 RMK A01 T02200183  RH  079%=      5-min Rain = 0
KWE1 031159Z 03007KT 22/18 A3007 RMK A01 T02210184  RH  079%=      5-min Rain = 0
KWE1 031200Z 02007KT 22/18 A3007 RMK A01 T02210184  RH  080%=      5-min Rain = 0
KWE1 031201Z 02007KT 22/18 A3008 RMK A01 T02210184  RH  079%=      5-min Rain = 0
KWE1 031202Z 02006KT 22/19 A3008 RMK A01 T02220185  RH  080%=      5-min Rain = 0
KWE1 031203Z 02007KT 22/19 A3008 RMK A01 T02210185  RH  080%=      5-min Rain = 0
KWE1 031204Z 02007KT 22/19 A3008 RMK A01 T02220185  RH  080%=      5-min Rain = 0
KWE1 031205Z 01007KT 22/19 A3008 RMK A01 T02220185  RH  080%=      5-min Rain = 0
KWE1 031206Z 01006KT 22/19 A3008 RMK A01 T02220185  RH  079%=      5-min Rain = 0
KWE1 031207Z 01006KT 22/19 A3008 RMK A01 T02230186  RH  080%=      5-min Rain = 0
KWE1 031208Z 02007KT 22/19 A3008 RMK A01 T02230187  RH  080%=      5-min Rain = 0
KWE1 031209Z 02006KT 22/19 A3008 RMK A01 T02230187  RH  080%=      5-min Rain = 0
KWE1 031210Z 02007KT 22/19 A3008 RMK A01 T02220187  RH  080%=      5-min Rain = 0
KWE1 031211Z 03005KT 22/19 A3008 RMK A01 T02220186  RH  080%=      5-min Rain = 0
KWE1 031212Z 03006KT 22/19 A3008 RMK A01 T02220187  RH  080%=      5-min Rain = 0
KWE1 031213Z 03006KT 22/19 A3008 RMK A01 T02230186  RH  080%=      5-min Rain = 0
KWE1 031214Z 03006KT 22/19 A3008 RMK A01 T02230185  RH  079%=      5-min Rain = 0
KWE1 031215Z 03006KT 22/19 A3008 RMK A01 T02230186  RH  079%=      5-min Rain = 0
KWE1 031216Z 04005KT 22/19 A3008 RMK A01 T02240185  RH  079%=      5-min Rain = 0
KWE1 031217Z 04005KT 22/19 A3008 RMK A01 T02240185  RH  079%=      5-min Rain = 0
KWE1 031218Z 04005KT 22/19 A3008 RMK A01 T02240185  RH  078%=      5-min Rain = 0
KWE1 031219Z 04005KT 22/18 A3008 RMK A01 T02240184  RH  078%=      5-min Rain = 0
KWE1 031220Z 05004KT 22/18 A3008 RMK A01 T02240184  RH  078%=      5-min Rain = 0
KWE1 031221Z 04005KT 22/18 A3008 RMK A01 T02240184  RH  078%=      5-min Rain = 0
KWE1 031222Z 04005KT 22/18 A3008 RMK A01 T02240184  RH  078%=      5-min Rain = 0
KWE1 031223Z 05006KT 22/18 A3008 RMK A01 T02240184  RH  078%=      5-min Rain = 0
KWE1 031224Z 05005KT 23/19 A3008 RMK A01 T02250185  RH  078%=      5-min Rain = 0
KWE1 031225Z 05006KT 23/19 A3008 RMK A01 T02250185  RH  078%=      5-min Rain = 0
KWE1 031226Z 05006KT 23/19 A3008 RMK A01 T02250185  RH  078%=      5-min Rain = 0
KWE1 031227Z 04006KT 23/19 A3008 RMK A01 T02250185  RH  078%=      5-min Rain = 0
KWE1 031228Z 05006KT 23/19 A3008 RMK A01 T02250185  RH  078%=      5-min Rain = 0
KWE1 031229Z 04007KT 23/18 A3008 RMK A01 T02250184  RH  078%=      5-min Rain = 0
KWE1 031230Z 04006KT 23/18 A3008 RMK A01 T02250184  RH  078%=      5-min Rain = 0
KWE1 031231Z 04007KT 23/18 A3008 RMK A01 T02250184  RH  078%=      5-min Rain = 0
KWE1 031232Z 03007KT 23/19 A3008 RMK A01 T02250185  RH  078%=      5-min Rain = 0
KWE1 031233Z 04007KT 23/19 A3008 RMK A01 T02260185  RH  078%=      5-min Rain = 0
KWE1 031234Z 04007KT 23/18 A3008 RMK A01 T02250184  RH  077%=      5-min Rain = 0
KWE1 031235Z 05007KT 23/18 A3008 RMK A01 T02260184  RH  077%=      5-min Rain = 0
KWE1 031236Z 04006KT 23/18 A3008 RMK A01 T02260184  RH  077%=      5-min Rain = 0
KWE1 031237Z 04006KT 23/18 A3008 RMK A01 T02270184  RH  077%=      5-min Rain = 0
KWE1 031238Z 04006KT 23/18 A3008 RMK A01 T02270184  RH  077%=      5-min Rain = 0
KWE1 031239Z 05006KT 23/18 A3008 RMK A01 T02270183  RH  076%=      5-min Rain = 0
KWE1 031240Z 05006KT 23/18 A3008 RMK A01 T02270183  RH  076%=      5-min Rain = 0
KWE1 031241Z 05007KT 23/18 A3008 RMK A01 T02270183  RH  076%=      5-min Rain = 0
KWE1 031242Z 06007KT 23/18 A3008 RMK A01 T02280183  RH  076%=      5-min Rain = 0
KWE1 031243Z 06007KT 23/18 A3008 RMK A01 T02280184  RH  076%=      5-min Rain = 0
KWE1 031244Z 06005KT 23/18 A3008 RMK A01 T02280184  RH  076%=      5-min Rain = 0
KWE1 031245Z 06006KT 23/19 A3008 RMK A01 T02280185  RH  077%=      5-min Rain = 0
KWE1 031246Z 06005KT 23/18 A3008 RMK A01 T02270184  RH  076%=      5-min Rain = 0
KWE1 031247Z 06005KT 23/19 A3008 RMK A01 T02280185  RH  077%=      5-min Rain = 0
KWE1 031248Z 06005KT 23/19 A3008 RMK A01 T02270185  RH  077%=      5-min Rain = 0
KWE1 031249Z 06006KT 23/19 A3008 RMK A01 T02270185  RH  077%=      5-min Rain = 0
KWE1 031250Z 06006KT 23/19 A3008 RMK A01 T02280185  RH  077%=      5-min Rain = 0
KWE1 031251Z 06006KT 23/18 A3008 RMK A01 T02270183  RH  076%=      5-min Rain = 0
KWE1 031252Z 06006KT 23/18 A3008 RMK A01 T02280183  RH  076%=      5-min Rain = 0
KWE1 031253Z 06006KT 23/19 A3008 RMK A01 T02280185  RH  077%=      5-min Rain = 0
KWE1 031254Z 06007KT 23/19 A3008 RMK A01 T02280186  RH  077%=      5-min Rain = 0
KWE1 031255Z 07006KT 23/19 A3008 RMK A01 T02270185  RH  077%=      5-min Rain = 0
KWE1 031256Z 07005KT 23/19 A3008 RMK A01 T02280185  RH  077%=      5-min Rain = 0
KWE1 031257Z 07006KT 23/19 A3008 RMK A01 T02280185  RH  077%=      5-min Rain = 0
KWE1 031258Z 07005KT 23/19 A3008 RMK A01 T02270185  RH  077%=      5-min Rain = 0
KWE1 031259Z 06005KT 23/18 A3008 RMK A01 T02280184  RH  076%=      5-min Rain = 0
KWE1 031300Z 06005KT 23/19 A3008 RMK A01 T02280185  RH  077%=      5-min Rain = 0
KWE1 031301Z 06006KT 23/18 A3008 RMK A01 T02280184  RH  076%=      5-min Rain = 0
KWE1 031302Z 07008KT 23/18 A3008 RMK A01 T02280183  RH  076%=      5-min Rain = 0
KWE1 031303Z 08007KT 23/18 A3008 RMK A01 T02290182  RH  075%=      5-min Rain = 0
KWE1 031304Z 08006KT 23/18 A3008 RMK A01 T02300183  RH  075%=      5-min Rain = 0
KWE1 031305Z 07007KT 23/18 A3008 RMK A01 T02300183  RH  075%=      5-min Rain = 0
KWE1 031306Z 07007KT 23/18 A3008 RMK A01 T02300182  RH  074%=      5-min Rain = 0
KWE1 031307Z 07006KT 23/18 A3008 RMK A01 T02300183  RH  074%=      5-min Rain = 0
KWE1 031308Z 07005KT 23/18 A3008 RMK A01 T02310184  RH  075%=      5-min Rain = 0
KWE1 031309Z 07005KT 23/18 A3008 RMK A01 T02310184  RH  075%=      5-min Rain = 0
KWE1 031310Z 07006KT 23/18 A3008 RMK A01 T02310182  RH  074%=      5-min Rain = 0
KWE1 031311Z 07005KT 23/18 A3008 RMK A01 T02310182  RH  074%=      5-min Rain = 0
KWE1 031312Z 07005KT 23/18 A3008 RMK A01 T02310183  RH  074%=      5-min Rain = 0
KWE1 031313Z 07005KT 23/18 A3008 RMK A01 T02320184  RH  075%=      5-min Rain = 0
KWE1 031314Z 07006KT 23/18 A3008 RMK A01 T02320184  RH  074%=      5-min Rain = 0
KWE1 031315Z 06005KT 23/18 A3008 RMK A01 T02320182  RH  073%=      5-min Rain = 0
KWE1 031316Z 06005KT 23/18 A3008 RMK A01 T02320182  RH  074%=      5-min Rain = 0
KWE1 031317Z 06005KT 23/18 A3008 RMK A01 T02320182  RH  073%=      5-min Rain = 0
KWE1 031318Z 06006KT 23/18 A3008 RMK A01 T02320182  RH  073%=      5-min Rain = 0
KWE1 031319Z 06006KT 23/18 A3008 RMK A01 T02330183  RH  073%=      5-min Rain = 0
KWE1 031320Z 08006KT 23/18 A3008 RMK A01 T02330183  RH  073%=      5-min Rain = 0
KWE1 031321Z 08005KT 23/18 A3008 RMK A01 T02330184  RH  074%=      5-min Rain = 0
KWE1 031322Z 08004KT 23/18 A3008 RMK A01 T02330184  RH  074%=      5-min Rain = 0
KWE1 031323Z 09006KT 23/18 A3008 RMK A01 T02340182  RH  073%=      5-min Rain = 0
KWE1 031324Z 08006KT 23/18 A3008 RMK A01 T02340181  RH  072%=      5-min Rain = 0
KWE1 031325Z 08006KT 23/18 A3008 RMK A01 T02340181  RH  072%=      5-min Rain = 0
KWE1 031326Z 08005KT 24/18 A3008 RMK A01 T02350181  RH  072%=      5-min Rain = 0
KWE1 031327Z 08005KT 24/18 A3008 RMK A01 T02350181  RH  072%=      5-min Rain = 0
KWE1 031328Z 08005KT 24/18 A3008 RMK A01 T02350183  RH  073%=      5-min Rain = 0
KWE1 031329Z 09005KT 24/18 A3008 RMK A01 T02360181  RH  071%=      5-min Rain = 0
KWE1 031330Z 09005KT 24/18 A3008 RMK A01 T02360182  RH  072%=      5-min Rain = 0
KWE1 031331Z 09005KT 24/18 A3008 RMK A01 T02370183  RH  072%=      5-min Rain = 0
KWE1 031332Z 08005KT 24/18 A3008 RMK A01 T02370183  RH  072%=      5-min Rain = 0
KWE1 031333Z 08004KT 24/18 A3008 RMK A01 T02380183  RH  071%=      5-min Rain = 0
KWE1 031334Z 07004KT 24/18 A3008 RMK A01 T02380183  RH  071%=      5-min Rain = 0
KWE1 031335Z 08003KT 24/19 A3008 RMK A01 T02390185  RH  072%=      5-min Rain = 0
KWE1 031336Z 08003KT 24/19 A3008 RMK A01 T02400185  RH  071%=      5-min Rain = 0
KWE1 031337Z 09004KT 24/18 A3008 RMK A01 T02420183  RH  070%=      5-min Rain = 0
KWE1 031338Z 09004KT 24/18 A3008 RMK A01 T02430183  RH  069%=      5-min Rain = 0
KWE1 031339Z 09004KT 24/19 A3008 RMK A01 T02440185  RH  069%=      5-min Rain = 0
KWE1 031340Z 09007KT 25/18 A3008 RMK A01 T02450182  RH  068%=      5-min Rain = 0
KWE1 031341Z 07006KT 25/18 A3008 RMK A01 T02450181  RH  068%=      5-min Rain = 0
KWE1 031342Z 08006KT 25/18 A3008 RMK A01 T02460183  RH  068%=      5-min Rain = 0
KWE1 031343Z 08007KT 25/18 A3008 RMK A01 T02460180  RH  067%=      5-min Rain = 0
KWE1 031344Z 08006KT 25/18 A3008 RMK A01 T02460178  RH  066%=      5-min Rain = 0
KWE1 031345Z 08005KT 25/18 A3008 RMK A01 T02460178  RH  066%=      5-min Rain = 0
KWE1 031346Z 08005KT 25/18 A3008 RMK A01 T02460179  RH  067%=      5-min Rain = 0
KWE1 031347Z 07003KT 25/18 A3008 RMK A01 T02450178  RH  066%=      5-min Rain = 0
KWE1 031348Z 08005KT 25/18 A3009 RMK A01 T02470182  RH  067%=      5-min Rain = 0
KWE1 031349Z 09004KT 25/18 A3009 RMK A01 T02470178  RH  065%=      5-min Rain = 0
KWE1 031350Z 10003KT 25/18 A3009 RMK A01 T02470180  RH  066%=      5-min Rain = 0
KWE1 031351Z 09003KT 25/18 A3009 RMK A01 T02470181  RH  067%=      5-min Rain = 0
KWE1 031352Z 06004KT 25/18 A3009 RMK A01 T02480182  RH  067%=      5-min Rain = 0
KWE1 031353Z 08004KT 25/18 A3009 RMK A01 T02490183  RH  067%=      5-min Rain = 0
KWE1 031354Z 09006KT 25/18 A3009 RMK A01 T02500182  RH  066%=      5-min Rain = 0
KWE1 031355Z 08006KT 25/18 A3009 RMK A01 T02500178  RH  064%=      5-min Rain = 0
KWE1 031356Z 08008KT 25/18 A3009 RMK A01 T02500179  RH  065%=      5-min Rain = 0
KWE1 031357Z 08006KT 25/18 A3009 RMK A01 T02500181  RH  065%=      5-min Rain = 0
KWE1 031358Z 09008KT 25/18 A3009 RMK A01 T02510181  RH  065%=      5-min Rain = 0
KWE1 031359Z 10008KT 25/18 A3009 RMK A01 T02520179  RH  064%=      5-min Rain = 0
KWE1 031400Z 10008KT 25/18 A3008 RMK A01 T02510181  RH  065%=      5-min Rain = 0
KWE1 031401Z 09008KT 25/18 A3008 RMK A01 T02520180  RH  064%=      5-min Rain = 0
KWE1 031402Z 09009KT 25/18 A3008 RMK A01 T02520178  RH  063%=      5-min Rain = 0
KWE1 031403Z 08007KT 25/18 A3008 RMK A01 T02510179  RH  064%=      5-min Rain = 0
KWE1 031404Z 08007KT 25/18 A3008 RMK A01 T02520181  RH  065%=      5-min Rain = 0
KWE1 031405Z 08008KT 25/18 A3009 RMK A01 T02520178  RH  064%=      5-min Rain = 0
KWE1 031406Z 07007KT 25/18 A3009 RMK A01 T02510179  RH  064%=      5-min Rain = 0
KWE1 031407Z 09008KT 25/18 A3009 RMK A01 T02510179  RH  064%=      5-min Rain = 0
KWE1 031408Z 09008KT 25/18 A3009 RMK A01 T02520180  RH  064%=      5-min Rain = 0
KWE1 031409Z 09008KT 25/18 A3009 RMK A01 T02520180  RH  064%=      5-min Rain = 0
KWE1 031410Z 09009KT 25/18 A3009 RMK A01 T02520177  RH  063%=      5-min Rain = 0
KWE1 031411Z 09008KT 25/18 A3009 RMK A01 T02520178  RH  063%=      5-min Rain = 0
KWE1 031412Z 09007KT 25/18 A3009 RMK A01 T02520177  RH  063%=      5-min Rain = 0
KWE1 031413Z 07006KT 25/18 A3009 RMK A01 T02530180  RH  064%=      5-min Rain = 0
KWE1 031414Z 09005KT 26/18 A3009 RMK A01 T02550180  RH  063%=      5-min Rain = 0
KWE1 031415Z 07006KT 26/18 A3009 RMK A01 T02560179  RH  063%=      5-min Rain = 0
KWE1 031416Z 05007KT 26/18 A3009 RMK A01 T02550177  RH  062%=      5-min Rain = 0
KWE1 031417Z 05009KT 26/18 A301 RMK A01 T02550176  RH  062%=      5-min Rain = 0
KWE1 031418Z 07005KT 25/18 A301 RMK A01 T02540178  RH  063%=      5-min Rain = 0
KWE1 031419Z 06006KT 25/18 A301 RMK A01 T02540176  RH  062%=      5-min Rain = 0
KWE1 031420Z 08009KT 25/18 A301 RMK A01 T02540177  RH  062%=      5-min Rain = 0
KWE1 031421Z 09008KT 25/18 A301 RMK A01 T02540176  RH  062%=      5-min Rain = 0
KWE1 031422Z 08006KT 25/18 A301 RMK A01 T02540179  RH  063%=      5-min Rain = 0
KWE1 031423Z 07006KT 26/18 A301 RMK A01 T02570180  RH  062%=      5-min Rain = 0
KWE1 031424Z 05008KT 26/18 A301 RMK A01 T02580177  RH  061%=      5-min Rain = 0
KWE1 031425Z 07008KT 26/18 A301 RMK A01 T02570177  RH  061%=      5-min Rain = 0
KWE1 031426Z 09007KT 26/18 A301 RMK A01 T02570177  RH  061%=      5-min Rain = 0
KWE1 031427Z 09007KT 26/18 A301 RMK A01 T02570176  RH  061%=      5-min Rain = 0
KWE1 031428Z 10007KT 26/18 A301 RMK A01 T02580176  RH  061%=      5-min Rain = 0
KWE1 031429Z 09006KT 26/18 A301 RMK A01 T02580178  RH  061%=      5-min Rain = 0
KWE1 031430Z 09007KT 26/18 A301 RMK A01 T02600178  RH  061%=      5-min Rain = 0
KWE1 031431Z 11008KT 26/18 A301 RMK A01 T02610178  RH  060%=      5-min Rain = 0
KWE1 031432Z 10008KT 26/18 A301 RMK A01 T02610175  RH  059%=      5-min Rain = 0
KWE1 031433Z 10008KT 26/18 A301 RMK A01 T02600175  RH  060%=      5-min Rain = 0
KWE1 031434Z 11006KT 26/17 A301 RMK A01 T02590174  RH  059%=      5-min Rain = 0
KWE1 031435Z 11005KT 26/18 A301 RMK A01 T02590175  RH  060%=      5-min Rain = 0
KWE1 031436Z 10008KT 26/18 A3009 RMK A01 T02600177  RH  060%=      5-min Rain = 0
KWE1 031437Z 09008KT 26/17 A301 RMK A01 T02610174  RH  059%=      5-min Rain = 0
KWE1 031438Z 09006KT 26/17 A301 RMK A01 T02600173  RH  058%=      5-min Rain = 0
KWE1 031439Z 07006KT 26/18 A301 RMK A01 T02600175  RH  059%=      5-min Rain = 0
KWE1 031440Z 07006KT 26/17 A301 RMK A01 T02610174  RH  059%=      5-min Rain = 0
KWE1 031441Z 06006KT 26/17 A301 RMK A01 T02600173  RH  059%=      5-min Rain = 0
KWE1 031442Z 07005KT 26/17 A301 RMK A01 T02590174  RH  059%=      5-min Rain = 0
KWE1 031443Z 08004KT 26/17 A301 RMK A01 T02610173  RH  059%=      5-min Rain = 0
KWE1 031444Z 06006KT 26/17 A301 RMK A01 T02620174  RH  058%=      5-min Rain = 0
KWE1 031445Z 07007KT 26/17 A301 RMK A01 T02630174  RH  058%=      5-min Rain = 0
KWE1 031446Z 08005KT 26/17 A301 RMK A01 T02630174  RH  058%=      5-min Rain = 0
KWE1 031447Z 08005KT 26/17 A301 RMK A01 T02640171  RH  056%=      5-min Rain = 0
KWE1 031448Z 07006KT 26/17 A301 RMK A01 T02640171  RH  057%=      5-min Rain = 0
KWE1 031449Z 06005KT 26/17 A301 RMK A01 T02630172  RH  057%=      5-min Rain = 0
KWE1 031450Z 08004KT 26/18 A301 RMK A01 T02640175  RH  058%=      5-min Rain = 0
KWE1 031451Z 07003KT 27/17 A301 RMK A01 T02680173  RH  056%=      5-min Rain = 0
KWE1 031452Z 08005KT 27/17 A301 RMK A01 T02690174  RH  056%=      5-min Rain = 0
KWE1 031453Z 09008KT 27/17 A301 RMK A01 T02700171  RH  055%=      5-min Rain = 0
KWE1 031454Z 09009KT 27/17 A301 RMK A01 T02700169  RH  054%=      5-min Rain = 0
KWE1 031455Z 09008KT 27/17 A301 RMK A01 T02690168  RH  054%=      5-min Rain = 0
KWE1 031456Z 09008KT 27/17 A301 RMK A01 T02680168  RH  054%=      5-min Rain = 0
KWE1 031457Z 08007KT 27/17 A301 RMK A01 T02670169  RH  055%=      5-min Rain = 0
KWE1 031458Z 09006KT 27/17 A301 RMK A01 T02670169  RH  055%=      5-min Rain = 0
KWE1 031459Z 09006KT 27/17 A301 RMK A01 T02680170  RH  055%=      5-min Rain = 0
KWE1 031500Z 06006KT 27/17 A301 RMK A01 T02710169  RH  054%=      5-min Rain = 0
KWE1 031501Z 06008KT 27/17 A301 RMK A01 T02700169  RH  054%=      5-min Rain = 0
KWE1 031502Z 07009KT 27/17 A301 RMK A01 T02690170  RH  055%=      5-min Rain = 0
KWE1 031503Z 07006KT 27/17 A301 RMK A01 T02680168  RH  054%=      5-min Rain = 0
KWE1 031504Z 08008KT 27/17 A301 RMK A01 T02670171  RH  056%=      5-min Rain = 0
KWE1 031505Z 08008KT 27/17 A301 RMK A01 T02690169  RH  054%=      5-min Rain = 0
KWE1 031506Z 09007KT 27/17 A301 RMK A01 T02690170  RH  055%=      5-min Rain = 0
KWE1 031507Z 08008KT 27/17 A301 RMK A01 T02700170  RH  054%=      5-min Rain = 0
KWE1 031508Z 09007KT 27/17 A301 RMK A01 T02710171  RH  054%=      5-min Rain = 0
KWE1 031509Z 08008KT 27/17 A301 RMK A01 T02710169  RH  054%=      5-min Rain = 0
KWE1 031510Z 06006KT 27/17 A301 RMK A01 T02710171  RH  054%=      5-min Rain = 0
KWE1 031511Z 05007KT 27/17 A301 RMK A01 T02720170  RH  054%=      5-min Rain = 0
KWE1 031512Z 05006KT 27/17 A301 RMK A01 T02710170  RH  054%=      5-min Rain = 0
KWE1 031513Z 03007KT 27/17 A3011 RMK A01 T02700170  RH  054%=      5-min Rain = 0
KWE1 031514Z 05009KT 27/17 A301 RMK A01 T02700171  RH  055%=      5-min Rain = 0
KWE1 031515Z 05008KT 27/17 A301 RMK A01 T02700169  RH  054%=      5-min Rain = 0
KWE1 031516Z 05008KT 27/17 A301 RMK A01 T02700170  RH  054%=      5-min Rain = 0
KWE1 031517Z 04009KT 27/17 A3011 RMK A01 T02700169  RH  054%=      5-min Rain = 0
KWE1 031518Z 04007KT 27/17 A3011 RMK A01 T02690169  RH  054%=      5-min Rain = 0
KWE1 031519Z 05004KT 27/17 A3011 RMK A01 T02690169  RH  054%=      5-min Rain = 0
KWE1 031520Z 06009KT 27/17 A3011 RMK A01 T02690169  RH  054%=      5-min Rain = 0
KWE1 031521Z 07008KT 27/17 A3011 RMK A01 T02700168  RH  054%=      5-min Rain = 0
KWE1 031522Z 07007KT 27/17 A3011 RMK A01 T02710169  RH  054%=      5-min Rain = 0
KWE1 031523Z 05007KT 27/17 A3011 RMK A01 T02720168  RH  053%=      5-min Rain = 0
KWE1 031524Z 05006KT 27/17 A3011 RMK A01 T02720168  RH  053%=      5-min Rain = 0
KWE1 031525Z 07005KT 27/17 A3011 RMK A01 T02710169  RH  053%=      5-min Rain = 0
KWE1 031526Z 06004KT 27/17 A3011 RMK A01 T02720168  RH  053%=      5-min Rain = 0
KWE1 031527Z 06007KT 27/17 A3011 RMK A01 T02720168  RH  053%=      5-min Rain = 0
KWE1 031528Z 04005KT 27/17 A3011 RMK A01 T02740169  RH  053%=      5-min Rain = 0
KWE1 031529Z 04008KT 28/17 A3011 RMK A01 T02750169  RH  052%=      5-min Rain = 0
KWE1 031530Z 04006KT 28/17 A3011 RMK A01 T02750169  RH  053%=      5-min Rain = 0
KWE1 031531Z 05006KT 28/17 A3011 RMK A01 T02750170  RH  053%=      5-min Rain = 0
KWE1 031532Z 04005KT 28/17 A3011 RMK A01 T02760169  RH  052%=      5-min Rain = 0
KWE1 031533Z 07006KT 28/17 A3011 RMK A01 T02780170  RH  052%=      5-min Rain = 0
KWE1 031534Z 05007KT 28/17 A3011 RMK A01 T02790170  RH  051%=      5-min Rain = 0
KWE1 031535Z 04009KT 28/17 A3011 RMK A01 T02800169  RH  051%=      5-min Rain = 0
KWE1 031536Z 03008KT 28/17 A3011 RMK A01 T02790170  RH  052%=      5-min Rain = 0
KWE1 031537Z 02008KT 28/17 A3011 RMK A01 T02790168  RH  051%=      5-min Rain = 0
KWE1 031538Z 03007KT 28/17 A3011 RMK A01 T02770168  RH  052%=      5-min Rain = 0
KWE1 031539Z 05006KT 28/17 A3011 RMK A01 T02770171  RH  052%=      5-min Rain = 0
KWE1 031540Z 09004KT 28/17 A3011 RMK A01 T02790170  RH  051%=      5-min Rain = 0
KWE1 031541Z 06005KT 28/17 A3011 RMK A01 T02820171  RH  051%=      5-min Rain = 0
KWE1 031542Z 05005KT 28/17 A3011 RMK A01 T02830169  RH  050%=      5-min Rain = 0
KWE1 031543Z 04008KT 28/17 A3011 RMK A01 T02820167  RH  050%=      5-min Rain = 0
KWE1 031544Z 03007KT 28/17 A3011 RMK A01 T02790167  RH  050%=      5-min Rain = 0
KWE1 031545Z 03006KT 28/17 A3011 RMK A01 T02780167  RH  051%=      5-min Rain = 0
KWE1 031546Z 05005KT 28/17 A3011 RMK A01 T02770166  RH  051%=      5-min Rain = 0
KWE1 031547Z 07005KT 28/17 A3011 RMK A01 T02780167  RH  051%=      5-min Rain = 0
KWE1 031548Z 09006KT 28/17 A3011 RMK A01 T02790165  RH  050%=      5-min Rain = 0
KWE1 031549Z 09006KT 28/17 A3011 RMK A01 T02800165  RH  050%=      5-min Rain = 0
KWE1 031550Z 07005KT 28/17 A3011 RMK A01 T02810167  RH  050%=      5-min Rain = 0
KWE1 031551Z 03006KT 28/17 A3011 RMK A01 T02830169  RH  050%=      5-min Rain = 0
KWE1 031552Z 04008KT 28/17 A3011 RMK A01 T02840170  RH  050%=      5-min Rain = 0
KWE1 031553Z 07005KT 29/17 A3011 RMK A01 T02850167  RH  049%=      5-min Rain = 0
KWE1 031554Z 07005KT 28/17 A3011 RMK A01 T02820167  RH  049%=      5-min Rain = 0
KWE1 031555Z 05004KT 28/17 A3011 RMK A01 T02820166  RH  049%=      5-min Rain = 0
KWE1 031556Z 08006KT 28/17 A3011 RMK A01 T02830166  RH  049%=      5-min Rain = 0
KWE1 031557Z 08005KT 28/17 A3011 RMK A01 T02830167  RH  049%=      5-min Rain = 0
KWE1 031558Z 08006KT 28/17 A3011 RMK A01 T02840166  RH  049%=      5-min Rain = 0
KWE1 031559Z 09004KT 28/17 A3011 RMK A01 T02830165  RH  049%=      5-min Rain = 0
KWE1 031600Z 07004KT 28/17 A3011 RMK A01 T02830165  RH  049%=      5-min Rain = 0
KWE1 031601Z 06008KT 28/17 A3011 RMK A01 T02830168  RH  049%=      5-min Rain = 0
KWE1 031602Z 06007KT 29/17 A3011 RMK A01 T02860168  RH  049%=      5-min Rain = 0
KWE1 031603Z 04005KT 29/17 A3011 RMK A01 T02870166  RH  048%=      5-min Rain = 0
KWE1 031604Z 06004KT 29/17 A3011 RMK A01 T02850165  RH  048%=      5-min Rain = 0
KWE1 031605Z 06004KT 29/16 A3011 RMK A01 T02850164  RH  048%=      5-min Rain = 0
KWE1 031606Z 05006KT 28/17 A3011 RMK A01 T02840165  RH  048%=      5-min Rain = 0
KWE1 031607Z 07007KT 29/17 A3011 RMK A01 T02850166  RH  049%=      5-min Rain = 0
KWE1 031608Z 07007KT 29/17 A3011 RMK A01 T02860166  RH  048%=      5-min Rain = 0
KWE1 031609Z 09005KT 29/16 A3011 RMK A01 T02870163  RH  047%=      5-min Rain = 0
KWE1 031610Z 11003KT 29/16 A3011 RMK A01 T02860163  RH  047%=      5-min Rain = 0
KWE1 031611Z 09002KT 29/17 A3011 RMK A01 T02850166  RH  048%=      5-min Rain = 0
KWE1 031612Z 06003KT 29/17 A3011 RMK A01 T02880166  RH  048%=      5-min Rain = 0
KWE1 031613Z 04004KT 29/17 A3011 RMK A01 T02890165  RH  047%=      5-min Rain = 0
KWE1 031614Z 03008KT 29/17 A3011 RMK A01 T02900166  RH  047%=      5-min Rain = 0
KWE1 031615Z 02008KT 29/17 A3011 RMK A01 T02910165  RH  047%=      5-min Rain = 0
KWE1 031616Z 04007KT 29/16 A3011 RMK A01 T02890164  RH  047%=      5-min Rain = 0
KWE1 031617Z 04007KT 29/16 A3011 RMK A01 T02880163  RH  047%=      5-min Rain = 0
KWE1 031618Z 03008KT 29/16 A3011 RMK A01 T02880164  RH  047%=      5-min Rain = 0
KWE1 031619Z 04007KT 29/16 A3011 RMK A01 T02880163  RH  047%=      5-min Rain = 0
KWE1 031620Z 08005KT 29/16 A3011 RMK A01 T02890163  RH  046%=      5-min Rain = 0
KWE1 031621Z 05006KT 29/16 A3011 RMK A01 T02910164  RH  046%=      5-min Rain = 0
KWE1 031622Z 04008KT 29/16 A3011 RMK A01 T02910162  RH  046%=      5-min Rain = 0
KWE1 031623Z 02007KT 29/16 A3011 RMK A01 T02890163  RH  047%=      5-min Rain = 0
KWE1 031624Z 02006KT 29/16 A3011 RMK A01 T02900164  RH  046%=      5-min Rain = 0
KWE1 031625Z 03007KT 29/16 A3011 RMK A01 T02920162  RH  045%=      5-min Rain = 0
KWE1 031626Z 05006KT 29/16 A3011 RMK A01 T02910161  RH  045%=      5-min Rain = 0
KWE1 031627Z 07008KT 29/16 A3011 RMK A01 T02910163  RH  046%=      5-min Rain = 0
KWE1 031628Z 07005KT 29/16 A3011 RMK A01 T02920163  RH  046%=      5-min Rain = 0
KWE1 031629Z 08002KT 29/16 A3011 RMK A01 T02930162  RH  045%=      5-min Rain = 0
KWE1 031630Z 10003KT 29/16 A3011 RMK A01 T02940164  RH  045%=      5-min Rain = 0
KWE1 031631Z 07004KT 30/16 A3011 RMK A01 T02970163  RH  044%=      5-min Rain = 0
KWE1 031632Z 08008KT 30/16 A3011 RMK A01 T02980163  RH  044%=      5-min Rain = 0
KWE1 031633Z 08008KT 30/16 A3011 RMK A01 T02990162  RH  044%=      5-min Rain = 0
KWE1 031634Z 07006KT 30/16 A3011 RMK A01 T02980161  RH  043%=      5-min Rain = 0
KWE1 031635Z 10007KT 30/16 A3011 RMK A01 T02970161  RH  044%=      5-min Rain = 0
KWE1 031636Z 12004KT 30/16 A3011 RMK A01 T02970161  RH  044%=      5-min Rain = 0
KWE1 031637Z 12003KT 30/16 A3011 RMK A01 T02980161  RH  044%=      5-min Rain = 0
KWE1 031638Z 06003KT 30/16 A3011 RMK A01 T02990162  RH  044%=      5-min Rain = 0
KWE1 031639Z 04006KT 30/16 A3011 RMK A01 T02990162  RH  043%=      5-min Rain = 0
KWE1 031640Z 04006KT 30/16 A3011 RMK A01 T02990160  RH  043%=      5-min Rain = 0
KWE1 031641Z 04004KT 30/16 A3011 RMK A01 T02960160  RH  044%=      5-min Rain = 0
KWE1 031642Z 03006KT 30/16 A3011 RMK A01 T02980164  RH  045%=      5-min Rain = 0
KWE1 031643Z 04008KT 30/16 A3011 RMK A01 T03020163  RH  043%=      5-min Rain = 0
KWE1 031644Z 04005KT 30/16 A3011 RMK A01 T03020160  RH  042%=      5-min Rain = 0
KWE1 031645Z 06004KT 30/16 A3011 RMK A01 T03000160  RH  043%=      5-min Rain = 0
KWE1 031646Z 04003KT 30/16 A3011 RMK A01 T03000161  RH  043%=      5-min Rain = 0
KWE1 031647Z 08005KT 30/16 A3011 RMK A01 T03030162  RH  043%=      5-min Rain = 0
KWE1 031648Z 09004KT 30/16 A3011 RMK A01 T03040161  RH  042%=      5-min Rain = 0
KWE1 031649Z 10001KT 31/16 A3011 RMK A01 T03050164  RH  043%=      5-min Rain = 0
KWE1 031650Z 27000KT 31/17 A3011 RMK A01 T03100165  RH  042%=      5-min Rain = 0
KWE1 031651Z 02001KT 31/17 A3011 RMK A01 T03140165  RH  041%=      5-min Rain = 0
KWE1 031652Z 04005KT 32/16 A3011 RMK A01 T03160163  RH  040%=      5-min Rain = 0
KWE1 031653Z 03005KT 31/16 A3011 RMK A01 T03120161  RH  040%=      5-min Rain = 0
KWE1 031654Z 08007KT 31/16 A3011 RMK A01 T03090163  RH  041%=      5-min Rain = 0
KWE1 031655Z 08008KT 31/16 A3011 RMK A01 T03090161  RH  041%=      5-min Rain = 0
KWE1 031656Z 09007KT 31/16 A3011 RMK A01 T03100162  RH  041%=      5-min Rain = 0
KWE1 031657Z 11005KT 31/16 A3011 RMK A01 T03120160  RH  040%=      5-min Rain = 0
KWE1 031658Z 07004KT 31/16 A3011 RMK A01 T03100158  RH  040%=      5-min Rain = 0
KWE1 031659Z 07002KT 31/16 A3011 RMK A01 T03060161  RH  042%=      5-min Rain = 0
KWE1 031700Z 13001KT 31/16 A301 RMK A01 T03070158  RH  041%=      5-min Rain = 0
KWE1 031701Z 19002KT 31/16 A301 RMK A01 T03070159  RH  041%=      5-min Rain = 0
KWE1 031702Z 20002KT 31/16 A301 RMK A01 T03090158  RH  040%=      5-min Rain = 0
KWE1 031703Z 24002KT 31/16 A301 RMK A01 T03080157  RH  040%=      5-min Rain = 0
KWE1 031704Z 25002KT 31/16 A301 RMK A01 T03060157  RH  041%=      5-min Rain = 0
KWE1 031705Z 25001KT 31/16 A301 RMK A01 T03060158  RH  041%=      5-min Rain = 0
KWE1 031706Z 14003KT 31/16 A301 RMK A01 T03060156  RH  040%=      5-min Rain = 0
KWE1 031707Z 09003KT 31/16 A301 RMK A01 T03080160  RH  041%=      5-min Rain = 0
KWE1 031708Z 05002KT 31/16 A301 RMK A01 T03100161  RH  041%=      5-min Rain = 0
KWE1 031709Z 01005KT 31/16 A301 RMK A01 T03100163  RH  041%=      5-min Rain = 0
KWE1 031710Z 01005KT 31/16 A301 RMK A01 T03100163  RH  041%=      5-min Rain = 0
KWE1 031711Z 35004KT 31/16 A301 RMK A01 T03090162  RH  041%=      5-min Rain = 0
KWE1 031712Z 02005KT 31/16 A301 RMK A01 T03080162  RH  042%=      5-min Rain = 0
KWE1 031713Z 13005KT 31/16 A301 RMK A01 T03100164  RH  042%=      5-min Rain = 0
KWE1 031714Z 16006KT 31/16 A301 RMK A01 T03140162  RH  040%=      5-min Rain = 0
KWE1 031715Z 17005KT 31/16 A301 RMK A01 T03130161  RH  040%=      5-min Rain = 0
KWE1 031716Z 16004KT 31/16 A301 RMK A01 T03120160  RH  040%=      5-min Rain = 0
KWE1 031717Z 18007KT 31/16 A301 RMK A01 T03110163  RH  041%=      5-min Rain = 0
KWE1 031718Z 19007KT 31/16 A301 RMK A01 T03110163  RH  041%=      5-min Rain = 0
KWE1 031719Z 18004KT 31/16 A301 RMK A01 T03130162  RH  040%=      5-min Rain = 0
KWE1 031720Z 18002KT 31/16 A301 RMK A01 T03130160  RH  040%=      5-min Rain = 0
KWE1 031721Z 14006KT 31/16 A301 RMK A01 T03120163  RH  041%=      5-min Rain = 0
KWE1 031722Z 12007KT 31/16 A301 RMK A01 T03130162  RH  040%=      5-min Rain = 0
KWE1 031723Z 11009KT 31/16 A301 RMK A01 T03140162  RH  040%=      5-min Rain = 0
KWE1 031724Z 10006KT 31/16 A301 RMK A01 T03130161  RH  040%=      5-min Rain = 0
KWE1 031725Z 10007KT 31/16 A301 RMK A01 T03110161  RH  040%=      5-min Rain = 0
KWE1 031726Z 08005KT 31/16 A301 RMK A01 T03120159  RH  040%=      5-min Rain = 0
KWE1 031727Z 06004KT 31/16 A301 RMK A01 T03080159  RH  041%=      5-min Rain = 0
KWE1 031728Z 05004KT 31/16 A301 RMK A01 T03070160  RH  041%=      5-min Rain = 0
KWE1 031729Z 06002KT 31/16 A301 RMK A01 T03070161  RH  042%=      5-min Rain = 0
KWE1 031730Z 11003KT 31/16 A301 RMK A01 T03080160  RH  041%=      5-min Rain = 0
KWE1 031731Z 13006KT 31/16 A301 RMK A01 T03110162  RH  041%=      5-min Rain = 0
KWE1 031732Z 13005KT 32/16 A301 RMK A01 T03150160  RH  039%=      5-min Rain = 0
KWE1 031733Z 09003KT 32/16 A301 RMK A01 T03150160  RH  039%=      5-min Rain = 0
KWE1 031734Z 12002KT 31/16 A301 RMK A01 T03140159  RH  039%=      5-min Rain = 0
KWE1 031735Z 10006KT 31/16 A301 RMK A01 T03140162  RH  040%=      5-min Rain = 0
KWE1 031736Z 10007KT 32/16 A301 RMK A01 T03160159  RH  039%=      5-min Rain = 0
KWE1 031737Z 09005KT 31/16 A301 RMK A01 T03140159  RH  039%=      5-min Rain = 0
KWE1 031738Z 11006KT 31/16 A301 RMK A01 T03130157  RH  039%=      5-min Rain = 0
KWE1 031739Z 11005KT 31/16 A301 RMK A01 T03120158  RH  039%=      5-min Rain = 0
KWE1 031740Z 09003KT 31/16 A301 RMK A01 T03100158  RH  040%=      5-min Rain = 0
KWE1 031741Z 11004KT 31/16 A301 RMK A01 T03090158  RH  040%=      5-min Rain = 0
KWE1 031742Z 11002KT 31/16 A301 RMK A01 T03080158  RH  040%=      5-min Rain = 0
KWE1 031743Z 09001KT 31/16 A301 RMK A01 T03100162  RH  041%=      5-min Rain = 0
KWE1 031744Z 12004KT 31/16 A301 RMK A01 T03120159  RH  040%=      5-min Rain = 0
KWE1 031745Z 12005KT 32/16 A301 RMK A01 T03150161  RH  040%=      5-min Rain = 0
KWE1 031746Z 13004KT 32/16 A301 RMK A01 T03170161  RH  039%=      5-min Rain = 0
KWE1 031747Z 14003KT 32/16 A301 RMK A01 T03170161  RH  039%=      5-min Rain = 0
KWE1 031748Z 13002KT 32/16 A301 RMK A01 T03170162  RH  039%=      5-min Rain = 0
KWE1 031749Z 18003KT 32/17 A301 RMK A01 T03200165  RH  039%=      5-min Rain = 0
KWE1 031750Z 20001KT 32/16 A301 RMK A01 T03230163  RH  038%=      5-min Rain = 0
KWE1 031751Z 24001KT 32/16 A301 RMK A01 T03220164  RH  039%=      5-min Rain = 0
KWE1 031752Z 28002KT 32/16 A301 RMK A01 T03220162  RH  038%=      5-min Rain = 0
KWE1 031753Z 30002KT 32/16 A301 RMK A01 T03190159  RH  038%=      5-min Rain = 0
KWE1 031754Z 35002KT 32/16 A301 RMK A01 T03160161  RH  039%=      5-min Rain = 0
KWE1 031755Z 34003KT 32/16 A301 RMK A01 T03160161  RH  039%=      5-min Rain = 0
KWE1 031756Z 33001KT 32/16 A301 RMK A01 T03160161  RH  039%=      5-min Rain = 0
KWE1 031757Z 34001KT 32/16 A301 RMK A01 T03160160  RH  039%=      5-min Rain = 0
KWE1 031758Z 01004KT 32/16 A301 RMK A01 T03170162  RH  039%=      5-min Rain = 0
KWE1 031759Z 06006KT 32/17 A301 RMK A01 T03210166  RH  039%=      5-min Rain = 0
KWE1 031800Z 07006KT 32/17 A301 RMK A01 T03240166  RH  039%=      5-min Rain = 0
KWE1 031801Z 06007KT 32/16 A301 RMK A01 T03230163  RH  038%=      5-min Rain = 0
KWE1 031802Z 05005KT 32/16 A3009 RMK A01 T03190163  RH  039%=      5-min Rain = 0
KWE1 031803Z 04005KT 32/16 A3009 RMK A01 T03170163  RH  040%=      5-min Rain = 0
KWE1 031804Z 04006KT 32/16 A3009 RMK A01 T03160164  RH  040%=      5-min Rain = 0
KWE1 031805Z 07006KT 32/16 A3009 RMK A01 T03170162  RH  039%=      5-min Rain = 0
KWE1 031806Z 08003KT 32/16 A3009 RMK A01 T03160161  RH  039%=      5-min Rain = 0
KWE1 031807Z 12001KT 32/16 A3009 RMK A01 T03150161  RH  040%=      5-min Rain = 0
KWE1 031808Z 15001KT 32/16 A3009 RMK A01 T03170163  RH  040%=      5-min Rain = 0
KWE1 031809Z 13003KT 32/16 A3009 RMK A01 T03200162  RH  039%=      5-min Rain = 0
KWE1 031810Z 16002KT 32/16 A3009 RMK A01 T03220162  RH  038%=      5-min Rain = 0
KWE1 031811Z 17004KT 32/16 A3009 RMK A01 T03230163  RH  038%=      5-min Rain = 0
KWE1 031812Z 14006KT 32/16 A3009 RMK A01 T03230161  RH  038%=      5-min Rain = 0
KWE1 031813Z 15005KT 32/16 A3009 RMK A01 T03230162  RH  038%=      5-min Rain = 0
KWE1 031814Z 12004KT 32/16 A3009 RMK A01 T03230161  RH  038%=      5-min Rain = 0
KWE1 031815Z 07003KT 32/16 A3009 RMK A01 T03230160  RH  038%=      5-min Rain = 0
KWE1 031816Z 10003KT 32/16 A3009 RMK A01 T03220162  RH  038%=      5-min Rain = 0
KWE1 031817Z 10001KT 32/16 A3009 RMK A01 T03220160  RH  038%=      5-min Rain = 0
KWE1 031818Z 08001KT 32/16 A3009 RMK A01 T03230161  RH  038%=      5-min Rain = 0
KWE1 031819Z 18005KT 33/16 A3009 RMK A01 T03270164  RH  038%=      5-min Rain = 0
KWE1 031820Z 17007KT 33/16 A3009 RMK A01 T03280161  RH  037%=      5-min Rain = 0
KWE1 031821Z 15006KT 33/16 A3009 RMK A01 T03280161  RH  037%=      5-min Rain = 0
KWE1 031822Z 15006KT 33/16 A3009 RMK A01 T03280161  RH  037%=      5-min Rain = 0
KWE1 031823Z 17007KT 33/16 A3009 RMK A01 T03300162  RH  037%=      5-min Rain = 0
KWE1 031824Z 17006KT 33/16 A3009 RMK A01 T03310159  RH  036%=      5-min Rain = 0
KWE1 031825Z 19006KT 33/16 A3009 RMK A01 T03280159  RH  036%=      5-min Rain = 0
KWE1 031826Z 18008KT 33/16 A3009 RMK A01 T03250160  RH  037%=      5-min Rain = 0
KWE1 031827Z 18006KT 33/16 A3009 RMK A01 T03250159  RH  037%=      5-min Rain = 0
KWE1 031828Z 19003KT 32/16 A3009 RMK A01 T03240158  RH  037%=      5-min Rain = 0
KWE1 031829Z 17001KT 33/16 A3009 RMK A01 T03250161  RH  037%=      5-min Rain = 0
KWE1 031830Z 15000KT 33/16 A3009 RMK A01 T03280159  RH  036%=      5-min Rain = 0
KWE1 031831Z 09000KT 33/16 A3009 RMK A01 T03280159  RH  036%=      5-min Rain = 0
KWE1 031832Z 02000KT 33/16 A3009 RMK A01 T03280159  RH  036%=      5-min Rain = 0
KWE1 031833Z 05001KT 33/16 A3009 RMK A01 T03270158  RH  036%=      5-min Rain = 0
KWE1 031834Z 05000KT 33/16 A3009 RMK A01 T03250158  RH  037%=      5-min Rain = 0
KWE1 031835Z 33001KT 33/16 A3009 RMK A01 T03290164  RH  037%=      5-min Rain = 0
KWE1 031836Z 34000KT 33/16 A3009 RMK A01 T03340161  RH  036%=      5-min Rain = 0
KWE1 031837Z 32002KT 33/16 A3008 RMK A01 T03340161  RH  036%=      5-min Rain = 0
KWE1 031838Z 25004KT 33/16 A3008 RMK A01 T03340161  RH  036%=      5-min Rain = 0
KWE1 031839Z 24006KT 33/16 A3008 RMK A01 T03330157  RH  035%=      5-min Rain = 0
KWE1 031840Z 24005KT 33/16 A3008 RMK A01 T03300156  RH  035%=      5-min Rain = 0
KWE1 031841Z 25006KT 33/16 A3008 RMK A01 T03300156  RH  035%=      5-min Rain = 0
KWE1 031842Z 25004KT 33/16 A3008 RMK A01 T03290156  RH  035%=      5-min Rain = 0
KWE1 031843Z 30005KT 33/16 A3008 RMK A01 T03280157  RH  036%=      5-min Rain = 0
KWE1 031844Z 30006KT 33/16 A3008 RMK A01 T03280158  RH  036%=      5-min Rain = 0
KWE1 031845Z 31004KT 33/16 A3008 RMK A01 T03280159  RH  036%=      5-min Rain = 0
KWE1 031846Z 34005KT 33/16 A3008 RMK A01 T03290159  RH  036%=      5-min Rain = 0
KWE1 031847Z 33004KT 33/16 A3008 RMK A01 T03280158  RH  036%=      5-min Rain = 0
KWE1 031848Z 01004KT 33/16 A3008 RMK A01 T03270156  RH  036%=      5-min Rain = 0
KWE1 031849Z 02003KT 32/16 A3008 RMK A01 T03240156  RH  036%=      5-min Rain = 0
KWE1 031850Z 04003KT 32/16 A3008 RMK A01 T03230157  RH  037%=      5-min Rain = 0
KWE1 031851Z 06006KT 33/16 A3008 RMK A01 T03250157  RH  037%=      5-min Rain = 0
KWE1 031852Z 06006KT 33/16 A3008 RMK A01 T03280157  RH  036%=      5-min Rain = 0
KWE1 031853Z 05005KT 33/16 A3008 RMK A01 T03290156  RH  036%=      5-min Rain = 0
KWE1 031854Z 04005KT 33/16 A3008 RMK A01 T03270155  RH  036%=      5-min Rain = 0
KWE1 031855Z 06005KT 32/16 A3008 RMK A01 T03240157  RH  036%=      5-min Rain = 0
KWE1 031856Z 04004KT 33/16 A3008 RMK A01 T03250157  RH  036%=      5-min Rain = 0
KWE1 031857Z 02006KT 33/16 A3008 RMK A01 T03250158  RH  036%=      5-min Rain = 0
KWE1 031858Z 03005KT 33/16 A3008 RMK A01 T03250157  RH  036%=      5-min Rain = 0
KWE1 031859Z 03004KT 33/16 A3008 RMK A01 T03250156  RH  036%=      5-min Rain = 0
KWE1 031900Z 04004KT 33/16 A3008 RMK A01 T03250157  RH  036%=      5-min Rain = 0
KWE1 031901Z 35004KT 33/16 A3008 RMK A01 T03270159  RH  036%=      5-min Rain = 0
KWE1 031902Z 34002KT 33/16 A3008 RMK A01 T03290159  RH  036%=      5-min Rain = 0
KWE1 031903Z 32002KT 33/16 A3008 RMK A01 T03280157  RH  036%=      5-min Rain = 0
KWE1 031904Z 33004KT 33/16 A3008 RMK A01 T03250156  RH  036%=      5-min Rain = 0
KWE1 031905Z 35003KT 32/16 A3008 RMK A01 T03230156  RH  037%=      5-min Rain = 0
KWE1 031906Z 33003KT 32/16 A3007 RMK A01 T03220156  RH  037%=      5-min Rain = 0
KWE1 031907Z 35004KT 32/16 A3007 RMK A01 T03220158  RH  037%=      5-min Rain = 0
KWE1 031908Z 00004KT 32/16 A3007 RMK A01 T03220157  RH  037%=      5-min Rain = 0
KWE1 031909Z 00003KT 32/16 A3007 RMK A01 T03210156  RH  037%=      5-min Rain = 0
KWE1 031910Z 33003KT 32/16 A3007 RMK A01 T03190156  RH  037%=      5-min Rain = 0
KWE1 031911Z 33002KT 32/16 A3007 RMK A01 T03190155  RH  037%=      5-min Rain = 0
KWE1 031912Z 01001KT 32/16 A3007 RMK A01 T03180155  RH  037%=      5-min Rain = 0
KWE1 031913Z 04001KT 32/16 A3007 RMK A01 T03210157  RH  037%=      5-min Rain = 0
KWE1 031914Z 04001KT 32/16 A3007 RMK A01 T03230157  RH  037%=      5-min Rain = 0
KWE1 031915Z 13001KT 33/16 A3007 RMK A01 T03260159  RH  037%=      5-min Rain = 0
KWE1 031916Z 15004KT 33/16 A3007 RMK A01 T03280160  RH  037%=      5-min Rain = 0
KWE1 031917Z 14003KT 33/16 A3007 RMK A01 T03310163  RH  037%=      5-min Rain = 0
KWE1 031918Z 11003KT 33/16 A3007 RMK A01 T03320163  RH  036%=      5-min Rain = 0
KWE1 031919Z 10004KT 33/16 A3007 RMK A01 T03320164  RH  037%=      5-min Rain = 0
KWE1 031920Z 09006KT 33/16 A3007 RMK A01 T03330163  RH  036%=      5-min Rain = 0
KWE1 031921Z 10005KT 33/16 A3007 RMK A01 T03320163  RH  036%=      5-min Rain = 0
KWE1 031922Z 19005KT 33/16 A3007 RMK A01 T03340161  RH  036%=      5-min Rain = 0
KWE1 031923Z 14004KT 33/16 A3007 RMK A01 T03330159  RH  035%=      5-min Rain = 0
KWE1 031924Z 11004KT 33/16 A3007 RMK A01 T03330160  RH  035%=      5-min Rain = 0
KWE1 031925Z 09005KT 34/16 A3007 RMK A01 T03360164  RH  036%=      5-min Rain = 0
KWE1 031926Z 14004KT 34/16 A3007 RMK A01 T03390164  RH  035%=      5-min Rain = 0
KWE1 031927Z 11005KT 34/16 A3007 RMK A01 T03430163  RH  034%=      5-min Rain = 0
KWE1 031928Z 13006KT 34/16 A3007 RMK A01 T03430163  RH  034%=      5-min Rain = 0
KWE1 031929Z 13004KT 34/16 A3007 RMK A01 T03420160  RH  034%=      5-min Rain = 0
KWE1 031930Z 13002KT 34/16 A3006 RMK A01 T03390162  RH  035%=      5-min Rain = 0
KWE1 031931Z 10006KT 34/16 A3006 RMK A01 T03390162  RH  035%=      5-min Rain = 0
KWE1 031932Z 09006KT 34/16 A3006 RMK A01 T03370160  RH  035%=      5-min Rain = 0
KWE1 031933Z 08005KT 33/16 A3006 RMK A01 T03340159  RH  035%=      5-min Rain = 0
KWE1 031934Z 16005KT 33/16 A3006 RMK A01 T03330160  RH  036%=      5-min Rain = 0
KWE1 031935Z 16008KT 33/16 A3006 RMK A01 T03320159  RH  035%=      5-min Rain = 0
KWE1 031936Z 33005KT 33/16 A3006 RMK A01 T03310160  RH  036%=      5-min Rain = 0
KWE1 031937Z 27005KT 33/16 A3006 RMK A01 T03310158  RH  036%=      5-min Rain = 0
KWE1 031938Z 20004KT 33/16 A3006 RMK A01 T03280157  RH  036%=      5-min Rain = 0
KWE1 031939Z 20006G11KT 33/16 A3006 RMK A01 T03270158  RH  036%=      5-min Rain = 0
KWE1 031940Z 19003KT 33/16 A3006 RMK A01 T03280159  RH  036%=      5-min Rain = 0
KWE1 031941Z 16004KT 33/16 A3006 RMK A01 T03280158  RH  036%=      5-min Rain = 0
KWE1 031942Z 16004KT 33/16 A3006 RMK A01 T03290158  RH  036%=      5-min Rain = 0
KWE1 031943Z 17004KT 33/16 A3006 RMK A01 T03280159  RH  036%=      5-min Rain = 0
KWE1 031944Z 18007KT 33/16 A3006 RMK A01 T03280161  RH  037%=      5-min Rain = 0
KWE1 031945Z 18006KT 33/16 A3006 RMK A01 T03280158  RH  036%=      5-min Rain = 0
KWE1 031946Z 19006KT 33/16 A3006 RMK A01 T03270155  RH  036%=      5-min Rain = 0
KWE1 031947Z 17005KT 33/15 A3006 RMK A01 T03250154  RH  036%=      5-min Rain = 0
KWE1 031948Z 15006KT 33/15 A3006 RMK A01 T03250153  RH  036%=      5-min Rain = 0
KWE1 031949Z 15005KT 33/15 A3006 RMK A01 T03260153  RH  035%=      5-min Rain = 0
KWE1 031950Z 15003KT 33/15 A3006 RMK A01 T03270153  RH  035%=      5-min Rain = 0
KWE1 031951Z 21006KT 33/15 A3006 RMK A01 T03270152  RH  035%=      5-min Rain = 0
KWE1 031952Z 20004KT 33/15 A3006 RMK A01 T03270147  RH  034%=      5-min Rain = 0
KWE1 031953Z 19006KT 33/15 A3006 RMK A01 T03270147  RH  034%=      5-min Rain = 0
KWE1 031954Z 19008KT 33/15 A3006 RMK A01 T03270147  RH  034%=      5-min Rain = 0
KWE1 031955Z 22008KT 33/15 A3006 RMK A01 T03270146  RH  034%=      5-min Rain = 0
KWE1 031956Z 20008KT 33/14 A3006 RMK A01 T03300144  RH  033%=      5-min Rain = 0
KWE1 031957Z 20007KT 33/15 A3005 RMK A01 T03300145  RH  033%=      5-min Rain = 0
KWE1 031958Z 21005KT 33/15 A3005 RMK A01 T03290145  RH  033%=      5-min Rain = 0
KWE1 031959Z 19003KT 33/15 A3005 RMK A01 T03290146  RH  033%=      5-min Rain = 0
KWE1 032000Z 22006KT 33/15 A3005 RMK A01 T03290147  RH  033%=      5-min Rain = 0
KWE1 032001Z 24005KT 33/15 A3005 RMK A01 T03290147  RH  033%=      5-min Rain = 0
KWE1 032002Z 23005KT 33/15 A3005 RMK A01 T03290148  RH  034%=      5-min Rain = 0
KWE1 032003Z 20003KT 33/15 A3005 RMK A01 T03270147  RH  034%=      5-min Rain = 0
KWE1 032004Z 21007KT 33/15 A3005 RMK A01 T03260147  RH  034%=      5-min Rain = 0
KWE1 032005Z 20005KT 33/15 A3005 RMK A01 T03280148  RH  034%=      5-min Rain = 0
KWE1 032006Z 22004KT 33/15 A3005 RMK A01 T03300149  RH  033%=      5-min Rain = 0
KWE1 032007Z 23004KT 33/15 A3005 RMK A01 T03330150  RH  033%=      5-min Rain = 0
KWE1 032008Z 23004KT 34/15 A3005 RMK A01 T03370148  RH  032%=      5-min Rain = 0
KWE1 032009Z 21002KT 34/15 A3005 RMK A01 T03380147  RH  032%=      5-min Rain = 0
KWE1 032010Z 17003KT 34/15 A3005 RMK A01 T03410145  RH  031%=      5-min Rain = 0
KWE1 032011Z 18003KT 34/14 A3005 RMK A01 T03400142  RH  030%=      5-min Rain = 0
KWE1 032012Z 19002KT 34/14 A3005 RMK A01 T03390144  RH  031%=      5-min Rain = 0
KWE1 032013Z 13002KT 34/15 A3005 RMK A01 T03370146  RH  032%=      5-min Rain = 0
KWE1 032014Z 13002KT 34/16 A3005 RMK A01 T03390159  RH  034%=      5-min Rain = 0
KWE1 032015Z 15003KT 34/16 A3005 RMK A01 T03440160  RH  033%=      5-min Rain = 0
KWE1 032016Z 19003KT 35/15 A3005 RMK A01 T03450151  RH  031%=      5-min Rain = 0
KWE1 032017Z 17004KT 34/15 A3005 RMK A01 T03440150  RH  031%=      5-min Rain = 0
KWE1 032018Z 21005KT 34/15 A3005 RMK A01 T03430152  RH  032%=      5-min Rain = 0
KWE1 032019Z 12004KT 34/15 A3005 RMK A01 T03400154  RH  033%=      5-min Rain = 0
KWE1 032020Z 10005KT 34/16 A3004 RMK A01 T03380156  RH  034%=      5-min Rain = 0
KWE1 032021Z 10004KT 34/15 A3004 RMK A01 T03350154  RH  034%=      5-min Rain = 0
KWE1 032022Z 11003KT 33/16 A3004 RMK A01 T03320155  RH  034%=      5-min Rain = 0
KWE1 032023Z 09004KT 33/16 A3004 RMK A01 T03320155  RH  035%=      5-min Rain = 0
KWE1 032024Z 08005KT 33/16 A3004 RMK A01 T03320155  RH  035%=      5-min Rain = 0
KWE1 032025Z 07003KT 33/16 A3004 RMK A01 T03320155  RH  035%=      5-min Rain = 0
KWE1 032026Z 10004KT 33/16 A3004 RMK A01 T03340157  RH  035%=      5-min Rain = 0
KWE1 032027Z 12002KT 34/16 A3004 RMK A01 T03380156  RH  034%=      5-min Rain = 0
KWE1 032028Z 09002KT 34/16 A3004 RMK A01 T03410158  RH  034%=      5-min Rain = 0
KWE1 032029Z 11002KT 34/16 A3004 RMK A01 T03410158  RH  033%=      5-min Rain = 0
KWE1 032030Z 15002KT 34/16 A3004 RMK A01 T03390159  RH  034%=      5-min Rain = 0
KWE1 032031Z 15001KT 34/16 A3004 RMK A01 T03380160  RH  035%=      5-min Rain = 0
KWE1 032032Z 17000KT 34/16 A3004 RMK A01 T03400160  RH  034%=      5-min Rain = 0
KWE1 032033Z 23001KT 34/16 A3004 RMK A01 T03410160  RH  034%=      5-min Rain = 0
KWE1 032034Z 23005KT 34/16 A3004 RMK A01 T03400158  RH  034%=      5-min Rain = 0
KWE1 032035Z 23006KT 34/15 A3004 RMK A01 T03360154  RH  034%=      5-min Rain = 0
KWE1 032036Z 22006KT 33/15 A3004 RMK A01 T03310153  RH  034%=      5-min Rain = 0
KWE1 032037Z 24002KT 33/15 A3004 RMK A01 T03300153  RH  034%=      5-min Rain = 0
KWE1 032038Z 25002KT 33/15 A3004 RMK A01 T03290153  RH  035%=      5-min Rain = 0
KWE1 032039Z 24002KT 33/15 A3004 RMK A01 T03290153  RH  035%=      5-min Rain = 0
KWE1 032040Z 20002KT 33/15 A3004 RMK A01 T03300154  RH  035%=      5-min Rain = 0
KWE1 032041Z 20004KT 33/16 A3004 RMK A01 T03320158  RH  035%=      5-min Rain = 0
KWE1 032042Z 22004KT 33/15 A3004 RMK A01 T03330153  RH  034%=      5-min Rain = 0
KWE1 032043Z 20002KT 33/16 A3004 RMK A01 T03320155  RH  034%=      5-min Rain = 0
KWE1 032044Z 21004KT 34/16 A3003 RMK A01 T03360156  RH  034%=      5-min Rain = 0
KWE1 032045Z 20005KT 34/16 A3003 RMK A01 T03390163  RH  035%=      5-min Rain = 0
KWE1 032046Z 15003KT 34/16 A3003 RMK A01 T03410162  RH  034%=      5-min Rain = 0
KWE1 032047Z 08001KT 34/16 A3003 RMK A01 T03410162  RH  034%=      5-min Rain = 0
KWE1 032048Z 34001KT 34/16 A3003 RMK A01 T03400161  RH  034%=      5-min Rain = 0
KWE1 032049Z 28003KT 34/16 A3003 RMK A01 T03370162  RH  035%=      5-min Rain = 0
KWE1 032050Z 24004KT 34/16 A3003 RMK A01 T03350161  RH  035%=      5-min Rain = 0
KWE1 032051Z 25002KT 33/16 A3003 RMK A01 T03340161  RH  036%=      5-min Rain = 0
KWE1 032052Z 00000KT 33/16 A3003 RMK A01 T03320160  RH  036%=      5-min Rain = 0
KWE1 032053Z 09003KT 33/16 A3003 RMK A01 T03310161  RH  036%=      5-min Rain = 0
KWE1 032054Z 10004KT 33/16 A3003 RMK A01 T03300159  RH  036%=      5-min Rain = 0
KWE1 032055Z 12006KT 33/16 A3003 RMK A01 T03290158  RH  036%=      5-min Rain = 0
KWE1 032056Z 11006KT 33/16 A3003 RMK A01 T03290156  RH  035%=      5-min Rain = 0
KWE1 032057Z 12006KT 33/16 A3003 RMK A01 T03300158  RH  036%=      5-min Rain = 0
KWE1 032058Z 12007KT 33/16 A3003 RMK A01 T03300158  RH  036%=      5-min Rain = 0
KWE1 032059Z 12005KT 33/16 A3003 RMK A01 T03290157  RH  036%=      5-min Rain = 0
KWE1 032100Z 11005KT 33/16 A3003 RMK A01 T03280157  RH  036%=      5-min Rain = 0
KWE1 032101Z 11004KT 33/16 A3003 RMK A01 T03310160  RH  036%=      5-min Rain = 0
KWE1 032102Z 14003KT 34/16 A3003 RMK A01 T03350159  RH  035%=      5-min Rain = 0
KWE1 032103Z 14002KT 34/16 A3003 RMK A01 T03380160  RH  034%=      5-min Rain = 0
KWE1 032104Z 11003KT 34/16 A3003 RMK A01 T03400160  RH  034%=      5-min Rain = 0
KWE1 032105Z 17004KT 34/16 A3002 RMK A01 T03400161  RH  034%=      5-min Rain = 0
KWE1 032106Z 16003KT 34/16 A3002 RMK A01 T03390164  RH  035%=      5-min Rain = 0
KWE1 032107Z 15004KT 34/17 A3002 RMK A01 T03380165  RH  036%=      5-min Rain = 0
KWE1 032108Z 14006KT 34/17 A3002 RMK A01 T03380167  RH  036%=      5-min Rain = 0
KWE1 032109Z 15008KT 34/17 A3002 RMK A01 T03370169  RH  037%=      5-min Rain = 0
KWE1 032110Z 14006KT 34/17 A3002 RMK A01 T03360170  RH  037%=      5-min Rain = 0
KWE1 032111Z 14007KT 34/17 A3002 RMK A01 T03360168  RH  037%=      5-min Rain = 0
KWE1 032112Z 18008KT 34/17 A3002 RMK A01 T03360169  RH  037%=      5-min Rain = 0
KWE1 032113Z 19008KT 34/17 A3002 RMK A01 T03350169  RH  037%=      5-min Rain = 0
KWE1 032114Z 18009KT 33/17 A3002 RMK A01 T03340169  RH  037%=      5-min Rain = 0
KWE1 032115Z 20006KT 33/17 A3002 RMK A01 T03310166  RH  037%=      5-min Rain = 0
KWE1 032116Z 17003KT 33/17 A3002 RMK A01 T03270165  RH  038%=      5-min Rain = 0
KWE1 032117Z 28002KT 33/16 A3002 RMK A01 T03260164  RH  038%=      5-min Rain = 0
KWE1 032118Z 28003KT 33/17 A3002 RMK A01 T03250165  RH  038%=      5-min Rain = 0
KWE1 032119Z 13000KT 33/17 A3002 RMK A01 T03260165  RH  038%=      5-min Rain = 0
KWE1 032120Z 10004KT 33/17 A3002 RMK A01 T03280165  RH  038%=      5-min Rain = 0
KWE1 032121Z 11003KT 33/17 A3002 RMK A01 T03280165  RH  038%=      5-min Rain = 0
KWE1 032122Z 11004KT 33/17 A3002 RMK A01 T03280165  RH  038%=      5-min Rain = 0
KWE1 032123Z 11005KT 33/17 A3002 RMK A01 T03280165  RH  038%=      5-min Rain = 0
KWE1 032124Z 12004KT 33/16 A3002 RMK A01 T03270163  RH  037%=      5-min Rain = 0
KWE1 032125Z 15004KT 33/16 A3002 RMK A01 T03270164  RH  038%=      5-min Rain = 0
KWE1 032126Z 16006KT 33/17 A3002 RMK A01 T03280165  RH  038%=      5-min Rain = 0
KWE1 032127Z 15003KT 33/17 A3002 RMK A01 T03290165  RH  038%=      5-min Rain = 0
KWE1 032128Z 16003KT 33/17 A3002 RMK A01 T03280166  RH  038%=      5-min Rain = 0
KWE1 032129Z 15006KT 33/17 A3002 RMK A01 T03280167  RH  038%=      5-min Rain = 0
KWE1 032130Z 13004KT 33/17 A3002 RMK A01 T03280169  RH  039%=      5-min Rain = 0
KWE1 032131Z 11005KT 33/17 A3002 RMK A01 T03280167  RH  038%=      5-min Rain = 0
KWE1 032132Z 14006KT 33/17 A3002 RMK A01 T03280167  RH  038%=      5-min Rain = 0
KWE1 032133Z 17007KT 33/17 A3002 RMK A01 T03280168  RH  038%=      5-min Rain = 0
KWE1 032134Z 18006KT 33/17 A3002 RMK A01 T03290169  RH  038%=      5-min Rain = 0
KWE1 032135Z 18008KT 33/17 A3002 RMK A01 T03310168  RH  038%=      5-min Rain = 0
KWE1 032136Z 16008KT 33/17 A3002 RMK A01 T03310167  RH  038%=      5-min Rain = 0
KWE1 032137Z 14008KT 33/17 A3002 RMK A01 T03300166  RH  037%=      5-min Rain = 0
KWE1 032138Z 14007KT 33/17 A3002 RMK A01 T03300166  RH  038%=      5-min Rain = 0
KWE1 032139Z 14008KT 33/17 A3002 RMK A01 T03290167  RH  038%=      5-min Rain = 0
KWE1 032140Z 14007KT 33/17 A3002 RMK A01 T03290167  RH  038%=      5-min Rain = 0
KWE1 032141Z 12004KT 33/17 A3002 RMK A01 T03260166  RH  038%=      5-min Rain = 0
KWE1 032142Z 11006KT 33/17 A3002 RMK A01 T03250166  RH  039%=      5-min Rain = 0
KWE1 032143Z 15005KT 33/17 A3002 RMK A01 T03250167  RH  039%=      5-min Rain = 0
KWE1 032144Z 19007KT 33/17 A3001 RMK A01 T03270169  RH  039%=      5-min Rain = 0
KWE1 032145Z 18007KT 33/17 A3001 RMK A01 T03300170  RH  038%=      5-min Rain = 0
KWE1 032146Z 18008G13KT 33/17 A3001 RMK A01 T03300169  RH  038%=      5-min Rain = 0
KWE1 032147Z 19006G12KT 33/17 A3001 RMK A01 T03300168  RH  038%=      5-min Rain = 0
KWE1 032148Z 18005KT 33/17 A3001 RMK A01 T03270166  RH  038%=      5-min Rain = 0
KWE1 032149Z 17002KT 33/17 A3001 RMK A01 T03250165  RH  038%=      5-min Rain = 0
KWE1 032150Z 16005G10KT 32/17 A3001 RMK A01 T03240165  RH  039%=      5-min Rain = 0
KWE1 032151Z 14006KT 32/17 A3001 RMK A01 T03240165  RH  039%=      5-min Rain = 0
KWE1 032152Z 12005KT 32/17 A3001 RMK A01 T03240165  RH  039%=      5-min Rain = 0
KWE1 032153Z 09002KT 32/17 A3001 RMK A01 T03240165  RH  039%=      5-min Rain = 0
KWE1 032154Z 13004KT 32/17 A3001 RMK A01 T03230166  RH  039%=      5-min Rain = 0
KWE1 032155Z 13005KT 32/17 A3001 RMK A01 T03230166  RH  039%=      5-min Rain = 0
KWE1 032156Z 12004KT 32/17 A3001 RMK A01 T03240167  RH  039%=      5-min Rain = 0
KWE1 032157Z 10003KT 32/17 A3001 RMK A01 T03240166  RH  039%=      5-min Rain = 0
KWE1 032158Z 11004KT 33/17 A3001 RMK A01 T03250166  RH  039%=      5-min Rain = 0
KWE1 032159Z 14005KT 33/17 A3001 RMK A01 T03250167  RH  039%=      5-min Rain = 0
KWE1 032200Z 16004KT 33/17 A3001 RMK A01 T03250167  RH  039%=      5-min Rain = 0
KWE1 032201Z 13003KT 33/17 A3001 RMK A01 T03260167  RH  039%=      5-min Rain = 0
KWE1 032202Z 14003KT 33/17 A3001 RMK A01 T03260168  RH  039%=      5-min Rain = 0
KWE1 032203Z 17002KT 33/17 A3001 RMK A01 T03270168  RH  039%=      5-min Rain = 0
KWE1 032204Z 14000KT 33/17 A3001 RMK A01 T03280168  RH  038%=      5-min Rain = 0
KWE1 032205Z 23002KT 33/17 A3001 RMK A01 T03280167  RH  038%=      5-min Rain = 0
KWE1 032206Z 21004KT 33/17 A3001 RMK A01 T03280166  RH  038%=      5-min Rain = 0
KWE1 032207Z 19003KT 33/17 A3001 RMK A01 T03270165  RH  038%=      5-min Rain = 0
KWE1 032208Z 18003KT 33/17 A3001 RMK A01 T03270167  RH  038%=      5-min Rain = 0
KWE1 032209Z 16001KT 33/17 A3001 RMK A01 T03280168  RH  038%=      5-min Rain = 0
KWE1 032210Z 10001KT 33/17 A3001 RMK A01 T03300168  RH  038%=      5-min Rain = 0
KWE1 032211Z 09003KT 33/17 A3001 RMK A01 T03310167  RH  038%=      5-min Rain = 0
KWE1 032212Z 11003KT 33/17 A3001 RMK A01 T03310169  RH  038%=      5-min Rain = 0
KWE1 032213Z 13003KT 33/17 A3001 RMK A01 T03320167  RH  037%=      5-min Rain = 0
KWE1 032214Z 16005KT 33/17 A3001 RMK A01 T03330169  RH  037%=      5-min Rain = 0
KWE1 032215Z 18005KT 34/17 A30 RMK A01 T03370169  RH  037%=      5-min Rain = 0
KWE1 032216Z 18007KT 34/17 A30 RMK A01 T03380169  RH  037%=      5-min Rain = 0
KWE1 032217Z 17005KT 34/17 A3001 RMK A01 T03390168  RH  036%=      5-min Rain = 0
KWE1 032218Z 16006KT 34/17 A3001 RMK A01 T03380168  RH  036%=      5-min Rain = 0
KWE1 032219Z 20005KT 34/17 A30 RMK A01 T03360166  RH  036%=      5-min Rain = 0
KWE1 032220Z 19004KT 33/17 A3001 RMK A01 T03320165  RH  037%=      5-min Rain = 0
KWE1 032221Z 16005KT 33/17 A30 RMK A01 T03310165  RH  037%=      5-min Rain = 0
KWE1 032222Z 15003KT 33/16 A30 RMK A01 T03290164  RH  037%=      5-min Rain = 0
KWE1 032223Z 18002KT 33/16 A30 RMK A01 T03290164  RH  037%=      5-min Rain = 0
KWE1 032224Z 18004KT 33/17 A30 RMK A01 T03290165  RH  037%=      5-min Rain = 0
KWE1 032225Z 19008KT 33/17 A30 RMK A01 T03290166  RH  038%=      5-min Rain = 0
KWE1 032226Z 21008KT 33/17 A30 RMK A01 T03310165  RH  037%=      5-min Rain = 0
KWE1 032227Z 22009KT 33/16 A30 RMK A01 T03310162  RH  036%=      5-min Rain = 0
KWE1 032228Z 22005KT 33/16 A30 RMK A01 T03300162  RH  037%=      5-min Rain = 0
KWE1 032229Z 24004KT 33/16 A30 RMK A01 T03300162  RH  037%=      5-min Rain = 0
KWE1 032230Z 20004KT 33/16 A30 RMK A01 T03290162  RH  037%=      5-min Rain = 0
KWE1 032231Z 20004KT 33/16 A30 RMK A01 T03300163  RH  037%=      5-min Rain = 0
KWE1 032232Z 21007KT 33/16 A30 RMK A01 T03300164  RH  037%=      5-min Rain = 0
KWE1 032233Z 20006KT 33/17 A30 RMK A01 T03310165  RH  037%=      5-min Rain = 0
KWE1 032234Z 18007KT 33/16 A30 RMK A01 T03330163  RH  036%=      5-min Rain = 0
KWE1 032235Z 17004KT 33/16 A30 RMK A01 T03340162  RH  036%=      5-min Rain = 0
KWE1 032236Z 19003KT 33/16 A30 RMK A01 T03340161  RH  036%=      5-min Rain = 0
KWE1 032237Z 17006G11KT 34/16 A30 RMK A01 T03350161  RH  035%=      5-min Rain = 0
KWE1 032238Z 17008KT 34/16 A30 RMK A01 T03360161  RH  035%=      5-min Rain = 0
KWE1 032239Z 14004KT 34/16 A30 RMK A01 T03350160  RH  035%=      5-min Rain = 0
KWE1 032240Z 13005KT 33/16 A30 RMK A01 T03340161  RH  036%=      5-min Rain = 0
KWE1 032241Z 13005KT 33/16 A30 RMK A01 T03340161  RH  036%=      5-min Rain = 0
KWE1 032242Z 12006KT 33/16 A30 RMK A01 T03340160  RH  035%=      5-min Rain = 0
KWE1 032243Z 11006KT 33/16 A30 RMK A01 T03340160  RH  035%=      5-min Rain = 0
KWE1 032244Z 11007KT 33/16 A30 RMK A01 T03330159  RH  035%=      5-min Rain = 0
KWE1 032245Z 13006KT 33/16 A30 RMK A01 T03320159  RH  036%=      5-min Rain = 0
KWE1 032246Z 14006KT 33/16 A30 RMK A01 T03320161  RH  036%=      5-min Rain = 0
KWE1 032247Z 13005KT 34/16 A30 RMK A01 T03350161  RH  035%=      5-min Rain = 0
KWE1 032248Z 09005KT 34/16 A30 RMK A01 T03380160  RH  035%=      5-min Rain = 0
KWE1 032249Z 11004KT 34/16 A30 RMK A01 T03390160  RH  034%=      5-min Rain = 0
KWE1 032250Z 10005KT 34/16 A30 RMK A01 T03410161  RH  034%=      5-min Rain = 0
KWE1 032251Z 10006KT 34/16 A2999 RMK A01 T03420162  RH  034%=      5-min Rain = 0
KWE1 032252Z 11005KT 34/16 A2999 RMK A01 T03420161  RH  034%=      5-min Rain = 0
KWE1 032253Z 12007KT 34/16 A2999 RMK A01 T03420161  RH  034%=      5-min Rain = 0
KWE1 032254Z 15008KT 34/16 A2999 RMK A01 T03420161  RH  034%=      5-min Rain = 0
KWE1 032255Z 14008KT 34/16 A2999 RMK A01 T03420162  RH  034%=      5-min Rain = 0
KWE1 032256Z 13006KT 34/16 A2999 RMK A01 T03410159  RH  034%=      5-min Rain = 0
KWE1 032257Z 13005KT 34/16 A2999 RMK A01 T03390160  RH  034%=      5-min Rain = 0
KWE1 032258Z 16004KT 34/16 A2999 RMK A01 T03390162  RH  035%=      5-min Rain = 0
KWE1 032259Z 15007KT 34/16 A2999 RMK A01 T03420164  RH  035%=      5-min Rain = 0
KWE1 032300Z 13005KT 34/16 A2999 RMK A01 T03430161  RH  034%=      5-min Rain = 0
KWE1 032301Z 13005KT 34/16 A2999 RMK A01 T03410161  RH  034%=      5-min Rain = 0
KWE1 032302Z 14004KT 34/16 A2999 RMK A01 T03410162  RH  034%=      5-min Rain = 0
KWE1 032303Z 13003KT 34/16 A2999 RMK A01 T03420161  RH  034%=      5-min Rain = 0
KWE1 032304Z 11003KT 34/16 A2999 RMK A01 T03430162  RH  034%=      5-min Rain = 0
KWE1 032305Z 11004KT 34/16 A2999 RMK A01 T03440161  RH  034%=      5-min Rain = 0
KWE1 032306Z 12006KT 34/16 A2999 RMK A01 T03430161  RH  034%=      5-min Rain = 0
KWE1 032307Z 09005KT 34/16 A2999 RMK A01 T03410160  RH  034%=      5-min Rain = 0
KWE1 032308Z 08004KT 34/16 A2999 RMK A01 T03390159  RH  034%=      5-min Rain = 0
KWE1 032309Z 12004KT 34/16 A2999 RMK A01 T03360158  RH  034%=      5-min Rain = 0
KWE1 032310Z 13004KT 34/16 A2999 RMK A01 T03360158  RH  035%=      5-min Rain = 0
KWE1 032311Z 13005KT 34/16 A2999 RMK A01 T03360159  RH  035%=      5-min Rain = 0
KWE1 032312Z 16006KT 34/16 A2999 RMK A01 T03370158  RH  034%=      5-min Rain = 0
KWE1 032313Z 20005KT 34/16 A2999 RMK A01 T03390160  RH  034%=      5-min Rain = 0
KWE1 032314Z 21007KT 34/16 A2999 RMK A01 T03390158  RH  034%=      5-min Rain = 0
KWE1 032315Z 22007KT 34/16 A2998 RMK A01 T03380158  RH  034%=      5-min Rain = 0
KWE1 032316Z 22008KT 34/16 A2998 RMK A01 T03370158  RH  034%=      5-min Rain = 0
KWE1 032317Z 24007KT 34/16 A2998 RMK A01 T03370157  RH  034%=      5-min Rain = 0
KWE1 032318Z 22008KT 34/16 A2998 RMK A01 T03370157  RH  034%=      5-min Rain = 0
KWE1 032319Z 21006KT 34/16 A2998 RMK A01 T03370158  RH  034%=      5-min Rain = 0
KWE1 032320Z 22010KT 34/16 A2998 RMK A01 T03380158  RH  034%=      5-min Rain = 0
KWE1 032321Z 22010KT 34/16 A2998 RMK A01 T03380156  RH  034%=      5-min Rain = 0
KWE1 032322Z 22009KT 34/16 A2998 RMK A01 T03380156  RH  034%=      5-min Rain = 0
KWE1 032323Z 22009KT 34/16 A2998 RMK A01 T03390158  RH  034%=      5-min Rain = 0
KWE1 032324Z 21006KT 34/16 A2998 RMK A01 T03390157  RH  033%=      5-min Rain = 0
KWE1 032325Z 21007KT 34/16 A2998 RMK A01 T03370157  RH  034%=      5-min Rain = 0
KWE1 032326Z 22006KT 34/16 A2998 RMK A01 T03360157  RH  034%=      5-min Rain = 0
KWE1 032327Z 22006KT 34/16 A2998 RMK A01 T03360156  RH  034%=      5-min Rain = 0
KWE1 032328Z 22005KT 34/16 A2998 RMK A01 T03360156  RH  034%=      5-min Rain = 0
KWE1 032329Z 21006KT 34/16 A2998 RMK A01 T03370157  RH  034%=      5-min Rain = 0
KWE1 032330Z 21005KT 34/16 A2998 RMK A01 T03370156  RH  034%=      5-min Rain = 0
KWE1 032331Z 23005KT 34/16 A2998 RMK A01 T03360155  RH  034%=      5-min Rain = 0
KWE1 032332Z 23005KT 34/15 A2998 RMK A01 T03360154  RH  034%=      5-min Rain = 0
KWE1 032333Z 22003KT 33/15 A2998 RMK A01 T03340152  RH  034%=      5-min Rain = 0
KWE1 032334Z 22004KT 33/15 A2998 RMK A01 T03340154  RH  034%=      5-min Rain = 0
KWE1 032335Z 25003KT 33/15 A2998 RMK A01 T03340153  RH  034%=      5-min Rain = 0
KWE1 032336Z 24004KT 34/15 A2998 RMK A01 T03350153  RH  034%=      5-min Rain = 0
KWE1 032337Z 26002KT 34/15 A2998 RMK A01 T03370154  RH  033%=      5-min Rain = 0
KWE1 032338Z 20005KT 34/16 A2998 RMK A01 T03360155  RH  034%=      5-min Rain = 0
KWE1 032339Z 20007KT 34/16 A2998 RMK A01 T03360155  RH  034%=      5-min Rain = 0
KWE1 032340Z 19004KT 33/15 A2998 RMK A01 T03340153  RH  034%=      5-min Rain = 0
KWE1 032341Z 19003KT 33/15 A2998 RMK A01 T03330153  RH  034%=      5-min Rain = 0
KWE1 032342Z 18003KT 33/15 A2998 RMK A01 T03330154  RH  034%=      5-min Rain = 0
KWE1 032343Z 21003KT 34/15 A2998 RMK A01 T03350154  RH  034%=      5-min Rain = 0
KWE1 032344Z 22005KT 34/15 A2998 RMK A01 T03360154  RH  034%=      5-min Rain = 0
KWE1 032345Z 20006KT 34/16 A2998 RMK A01 T03380157  RH  034%=      5-min Rain = 0
KWE1 032346Z 21008KT 34/15 A2998 RMK A01 T03390154  RH  033%=      5-min Rain = 0
KWE1 032347Z 22008KT 34/15 A2998 RMK A01 T03370154  RH  033%=      5-min Rain = 0
KWE1 032348Z 22008KT 34/15 A2998 RMK A01 T03360153  RH  033%=      5-min Rain = 0
KWE1 032349Z 22008KT 34/15 A2998 RMK A01 T03360153  RH  033%=      5-min Rain = 0
KWE1 032350Z 22007KT 34/15 A2998 RMK A01 T03360153  RH  033%=      5-min Rain = 0
KWE1 032351Z 22007KT 34/15 A2998 RMK A01 T03360152  RH  033%=      5-min Rain = 0
KWE1 032352Z 23007KT 34/15 A2998 RMK A01 T03350151  RH  033%=      5-min Rain = 0
KWE1 032353Z 23007KT 34/15 A2998 RMK A01 T03350151  RH  033%=      5-min Rain = 0
KWE1 032354Z 24005KT 33/15 A2998 RMK A01 T03340151  RH  033%=      5-min Rain = 0
KWE1 032355Z 25007KT 34/15 A2998 RMK A01 T03370153  RH  033%=      5-min Rain = 0
KWE1 032356Z 25006KT 34/15 A2998 RMK A01 T03380152  RH  033%=      5-min Rain = 0
KWE1 032357Z 25008KT 34/15 A2998 RMK A01 T03370152  RH  033%=      5-min Rain = 0
KWE1 032358Z 24007KT 34/15 A2998 RMK A01 T03360152  RH  033%=      5-min Rain = 0
KWE1 032359Z 24005KT 34/15 A2998 RMK A01 T03350150  RH  033%=      5-min Rain = 0
KWE1 040000Z 23007KT 33/15 A2998 RMK A01 T03340151  RH  033%=      5-min Rain = 0
KWE1 040001Z 25004KT 33/15 A2998 RMK A01 T03330150  RH  033%=      5-min Rain = 0
KWE1 040002Z 24003KT 33/15 A2998 RMK A01 T03330150  RH  033%=      5-min Rain = 0
KWE1 040003Z 23003KT 33/15 A2998 RMK A01 T03320150  RH  033%=      5-min Rain = 0
KWE1 040004Z 23004KT 33/15 A2998 RMK A01 T03320150  RH  033%=      5-min Rain = 0
KWE1 040005Z 22008KT 33/15 A2998 RMK A01 T03330151  RH  033%=      5-min Rain = 0
KWE1 040006Z 24008KT 33/15 A2998 RMK A01 T03330149  RH  033%=      5-min Rain = 0
KWE1 040007Z 23007KT 33/15 A2998 RMK A01 T03330148  RH  033%=      5-min Rain = 0
KWE1 040008Z 22007KT 33/15 A2998 RMK A01 T03320149  RH  033%=      5-min Rain = 0
KWE1 040009Z 22007KT 33/15 A2998 RMK A01 T03330150  RH  033%=      5-min Rain = 0
KWE1 040010Z 21007KT 33/15 A2998 RMK A01 T03330151  RH  034%=      5-min Rain = 0
KWE1 040011Z 21007KT 33/15 A2998 RMK A01 T03330150  RH  033%=      5-min Rain = 0
KWE1 040012Z 21007KT 33/15 A2998 RMK A01 T03330150  RH  033%=      5-min Rain = 0
KWE1 040013Z 19007KT 33/15 A2998 RMK A01 T03330151  RH  033%=      5-min Rain = 0
KWE1 040014Z 19006KT 33/15 A2998 RMK A01 T03330150  RH  033%=      5-min Rain = 0
KWE1 040015Z 17005KT 33/15 A2998 RMK A01 T03330151  RH  033%=      5-min Rain = 0
KWE1 040016Z 15005KT 33/15 A2998 RMK A01 T03330152  RH  034%=      5-min Rain = 0
KWE1 040017Z 18003KT 33/15 A2998 RMK A01 T03340152  RH  033%=      5-min Rain = 0
KWE1 040018Z 22003KT 33/15 A2998 RMK A01 T03340151  RH  033%=      5-min Rain = 0
KWE1 040019Z 22003KT 33/15 A2998 RMK A01 T03340151  RH  033%=      5-min Rain = 0
KWE1 040020Z 23005KT 33/15 A2998 RMK A01 T03340149  RH  033%=      5-min Rain = 0
KWE1 040021Z 23004KT 33/15 A2998 RMK A01 T03340149  RH  033%=      5-min Rain = 0
KWE1 040022Z 24005KT 33/15 A2998 RMK A01 T03340149  RH  033%=      5-min Rain = 0
KWE1 040023Z 24006KT 33/15 A2998 RMK A01 T03330149  RH  033%=      5-min Rain = 0
KWE1 040024Z 22004KT 33/15 A2998 RMK A01 T03330150  RH  033%=      5-min Rain = 0
KWE1 040025Z 22005KT 33/15 A2998 RMK A01 T03330149  RH  033%=      5-min Rain = 0
KWE1 040026Z 22004KT 33/15 A2998 RMK A01 T03330150  RH  033%=      5-min Rain = 0
KWE1 040027Z 21004KT 33/15 A2998 RMK A01 T03320149  RH  033%=      5-min Rain = 0
KWE1 040028Z 20003KT 33/15 A2998 RMK A01 T03320150  RH  034%=      5-min Rain = 0
KWE1 040029Z 20005KT 33/15 A2998 RMK A01 T03310150  RH  034%=      5-min Rain = 0
KWE1 040030Z 20005KT 33/15 A2998 RMK A01 T03320151  RH  034%=      5-min Rain = 0
KWE1 040031Z 21004KT 33/15 A2998 RMK A01 T03320150  RH  034%=      5-min Rain = 0
KWE1 040032Z 22004KT 33/15 A2998 RMK A01 T03320151  RH  034%=      5-min Rain = 0
KWE1 040033Z 23007KT 33/15 A2998 RMK A01 T03320150  RH  034%=      5-min Rain = 0
KWE1 040034Z 24007KT 33/15 A2998 RMK A01 T03320148  RH  033%=      5-min Rain = 0
KWE1 040035Z 23005KT 33/15 A2998 RMK A01 T03310149  RH  033%=      5-min Rain = 0
KWE1 040036Z 22005KT 33/15 A2998 RMK A01 T03310149  RH  033%=      5-min Rain = 0
KWE1 040037Z 22005KT 33/15 A2998 RMK A01 T03310149  RH  034%=      5-min Rain = 0
KWE1 040038Z 20007KT 33/15 A2998 RMK A01 T03300149  RH  034%=      5-min Rain = 0
KWE1 040039Z 18005KT 33/15 A2998 RMK A01 T03300149  RH  034%=      5-min Rain = 0
KWE1 040040Z 17005KT 33/15 A2998 RMK A01 T03290148  RH  034%=      5-min Rain = 0
KWE1 040041Z 13004KT 33/15 A2998 RMK A01 T03290148  RH  034%=      5-min Rain = 0
KWE1 040042Z 14004KT 33/15 A2998 RMK A01 T03290149  RH  034%=      5-min Rain = 0
KWE1 040043Z 15003KT 33/15 A2998 RMK A01 T03290149  RH  034%=      5-min Rain = 0
KWE1 040044Z 15002KT 33/15 A2998 RMK A01 T03290150  RH  034%=      5-min Rain = 0
KWE1 040045Z 17002KT 33/15 A2998 RMK A01 T03300151  RH  034%=      5-min Rain = 0
KWE1 040046Z 20002KT 33/15 A2998 RMK A01 T03300150  RH  034%=      5-min Rain = 0
KWE1 040047Z 19002KT 33/15 A2998 RMK A01 T03300149  RH  034%=      5-min Rain = 0
KWE1 040048Z 18003KT 33/15 A2998 RMK A01 T03300148  RH  034%=      5-min Rain = 0
KWE1 040049Z 20004KT 33/15 A2998 RMK A01 T03290149  RH  034%=      5-min Rain = 0
KWE1 040050Z 22004KT 33/15 A2998 RMK A01 T03290151  RH  034%=      5-min Rain = 0
KWE1 040051Z 21005KT 33/15 A2998 RMK A01 T03280150  RH  034%=      5-min Rain = 0
KWE1 040052Z 19005KT 33/15 A2998 RMK A01 T03280150  RH  034%=      5-min Rain = 0
KWE1 040053Z 19005KT 33/15 A2998 RMK A01 T03270150  RH  034%=      5-min Rain = 0
KWE1 040054Z 21005KT 33/15 A2998 RMK A01 T03270150  RH  035%=      5-min Rain = 0
KWE1 040055Z 22004KT 33/15 A2998 RMK A01 T03260151  RH  035%=      5-min Rain = 0
KWE1 040056Z 22005KT 33/15 A2998 RMK A01 T03260151  RH  035%=      5-min Rain = 0
KWE1 040057Z 19006KT 33/15 A2998 RMK A01 T03260151  RH  035%=      5-min Rain = 0
KWE1 040058Z 19006KT 33/15 A2998 RMK A01 T03260149  RH  035%=      5-min Rain = 0
KWE1 040059Z 20005KT 33/15 A2998 RMK A01 T03250149  RH  035%=      5-min Rain = 0
KWE1 040100Z 20005KT 32/15 A2998 RMK A01 T03240150  RH  035%=      5-min Rain = 0
KWE1 040101Z 20005KT 32/15 A2998 RMK A01 T03240149  RH  035%=      5-min Rain = 0
KWE1 040102Z 20004KT 32/15 A2998 RMK A01 T03240150  RH  035%=      5-min Rain = 0
KWE1 040103Z 21004KT 32/15 A2998 RMK A01 T03230149  RH  035%=      5-min Rain = 0
KWE1 040104Z 19004KT 32/15 A2998 RMK A01 T03230150  RH  035%=      5-min Rain = 0
KWE1 040105Z 20004KT 32/15 A2998 RMK A01 T03230150  RH  035%=      5-min Rain = 0
KWE1 040106Z 21004KT 32/15 A2998 RMK A01 T03230150  RH  035%=      5-min Rain = 0
KWE1 040107Z 21005KT 32/15 A2998 RMK A01 T03220150  RH  035%=      5-min Rain = 0
KWE1 040108Z 22005KT 32/15 A2998 RMK A01 T03220150  RH  035%=      5-min Rain = 0
KWE1 040109Z 21006KT 32/15 A2998 RMK A01 T03210149  RH  035%=      5-min Rain = 0
KWE1 040110Z 20006KT 32/15 A2998 RMK A01 T03210150  RH  036%=      5-min Rain = 0
KWE1 040111Z 20006KT 32/15 A2998 RMK A01 T03210150  RH  036%=      5-min Rain = 0
KWE1 040112Z 21005KT 32/15 A2998 RMK A01 T03200150  RH  036%=      5-min Rain = 0
KWE1 040113Z 21006KT 32/15 A2998 RMK A01 T03200150  RH  036%=      5-min Rain = 0
KWE1 040114Z 20005KT 32/15 A2998 RMK A01 T03190149  RH  036%=      5-min Rain = 0
KWE1 040115Z 20006KT 32/15 A2998 RMK A01 T03190149  RH  036%=      5-min Rain = 0
KWE1 040116Z 20005KT 32/15 A2998 RMK A01 T03180149  RH  036%=      5-min Rain = 0
KWE1 040117Z 21005KT 32/15 A2998 RMK A01 T03180149  RH  036%=      5-min Rain = 0
KWE1 040118Z 21004KT 32/15 A2998 RMK A01 T03170150  RH  036%=      5-min Rain = 0
KWE1 040119Z 21005KT 32/15 A2998 RMK A01 T03160150  RH  037%=      5-min Rain = 0
KWE1 040120Z 22005KT 32/15 A2998 RMK A01 T03160150  RH  037%=      5-min Rain = 0
KWE1 040121Z 22004KT 32/15 A2998 RMK A01 T03160150  RH  037%=      5-min Rain = 0
KWE1 040122Z 22004KT 32/15 A2998 RMK A01 T03160150  RH  037%=      5-min Rain = 0
KWE1 040123Z 21005KT 32/15 A2998 RMK A01 T03150150  RH  037%=      5-min Rain = 0
KWE1 040124Z 21005KT 32/15 A2998 RMK A01 T03150150  RH  037%=      5-min Rain = 0
KWE1 040125Z 21005KT 32/15 A2998 RMK A01 T03150150  RH  037%=      5-min Rain = 0
KWE1 040126Z 21004KT 31/15 A2998 RMK A01 T03140151  RH  037%=      5-min Rain = 0
KWE1 040127Z 21003KT 31/15 A2998 RMK A01 T03140151  RH  037%=      5-min Rain = 0
KWE1 040128Z 21004KT 31/15 A2998 RMK A01 T03120151  RH  038%=      5-min Rain = 0
KWE1 040129Z 20004KT 31/15 A2998 RMK A01 T03120151  RH  038%=      5-min Rain = 0
KWE1 040130Z 21004KT 31/15 A2998 RMK A01 T03110151  RH  038%=      5-min Rain = 0
KWE1 040131Z 21004KT 31/15 A2998 RMK A01 T03110150  RH  038%=      5-min Rain = 0
KWE1 040132Z 21004KT 31/15 A2998 RMK A01 T03100150  RH  038%=      5-min Rain = 0
KWE1 040133Z 21004KT 31/15 A2998 RMK A01 T03100150  RH  038%=      5-min Rain = 0
KWE1 040134Z 20004KT 31/15 A2998 RMK A01 T03090150  RH  038%=      5-min Rain = 0
KWE1 040135Z 20004KT 31/15 A2998 RMK A01 T03090151  RH  038%=      5-min Rain = 0
KWE1 040136Z 19004KT 31/15 A2998 RMK A01 T03080150  RH  038%=      5-min Rain = 0
KWE1 040137Z 19004KT 31/15 A2998 RMK A01 T03080150  RH  038%=      5-min Rain = 0
KWE1 040138Z 19003KT 31/15 A2998 RMK A01 T03070149  RH  038%=      5-min Rain = 0
KWE1 040139Z 18003KT 31/15 A2998 RMK A01 T03060149  RH  038%=      5-min Rain = 0
KWE1 040140Z 18003KT 31/15 A2998 RMK A01 T03050148  RH  038%=      5-min Rain = 0
KWE1 040141Z 17003KT 30/15 A2998 RMK A01 T03040148  RH  039%=      5-min Rain = 0
KWE1 040142Z 18003KT 30/15 A2998 RMK A01 T03030148  RH  039%=      5-min Rain = 0
KWE1 040143Z 18003KT 30/15 A2998 RMK A01 T03020148  RH  039%=      5-min Rain = 0
KWE1 040144Z 16003KT 30/15 A2998 RMK A01 T03010148  RH  039%=      5-min Rain = 0
KWE1 040145Z 18003KT 30/15 A2998 RMK A01 T03000148  RH  040%=      5-min Rain = 0
KWE1 040146Z 18004KT 30/15 A2998 RMK A01 T02990147  RH  040%=      5-min Rain = 0
KWE1 040147Z 17004KT 30/15 A2998 RMK A01 T02980148  RH  040%=      5-min Rain = 0
KWE1 040148Z 17004KT 30/15 A2998 RMK A01 T02980148  RH  040%=      5-min Rain = 0
KWE1 040149Z 17004KT 30/15 A2998 RMK A01 T02980148  RH  040%=      5-min Rain = 0
KWE1 040150Z 18004KT 30/15 A2998 RMK A01 T02970148  RH  040%=      5-min Rain = 0
KWE1 040151Z 18004KT 30/15 A2998 RMK A01 T02970147  RH  040%=      5-min Rain = 0
KWE1 040152Z 18004KT 30/15 A2998 RMK A01 T02960146  RH  040%=      5-min Rain = 0
KWE1 040153Z 20004KT 30/15 A2998 RMK A01 T02960146  RH  040%=      5-min Rain = 0
KWE1 040154Z 19004KT 30/15 A2998 RMK A01 T02960146  RH  040%=      5-min Rain = 0
KWE1 040155Z 19004KT 30/15 A2998 RMK A01 T02970146  RH  040%=      5-min Rain = 0
KWE1 040156Z 20004KT 30/15 A2998 RMK A01 T02970146  RH  040%=      5-min Rain = 0
KWE1 040157Z 20004KT 30/15 A2998 RMK A01 T02970147  RH  040%=      5-min Rain = 0
KWE1 040158Z 20004KT 30/15 A2998 RMK A01 T02970148  RH  040%=      5-min Rain = 0
KWE1 040159Z 20004KT 30/15 A2998 RMK A01 T02970147  RH  040%=      5-min Rain = 0
KWE1 040200Z 20005KT 30/15 A2998 RMK A01 T02970147  RH  040%=      5-min Rain = 0
KWE1 040201Z 19004KT 30/15 A2998 RMK A01 T02970148  RH  040%=      5-min Rain = 0
KWE1 040202Z 20004KT 30/15 A2998 RMK A01 T02960147  RH  040%=      5-min Rain = 0
KWE1 040203Z 19004KT 30/15 A2999 RMK A01 T02960147  RH  040%=      5-min Rain = 0
KWE1 040204Z 19004KT 30/15 A2999 RMK A01 T02960147  RH  040%=      5-min Rain = 0
KWE1 040205Z 19004KT 30/15 A2999 RMK A01 T02960147  RH  040%=      5-min Rain = 0
KWE1 040206Z 19004KT 30/15 A2999 RMK A01 T02950147  RH  040%=      5-min Rain = 0
KWE1 040207Z 19004KT 30/15 A2999 RMK A01 T02950147  RH  040%=      5-min Rain = 0
KWE1 040208Z 19004KT 30/15 A2999 RMK A01 T02950146  RH  040%=      5-min Rain = 0
KWE1 040209Z 19004KT 29/15 A2999 RMK A01 T02940146  RH  040%=      5-min Rain = 0
KWE1 040210Z 20004KT 29/15 A2999 RMK A01 T02940146  RH  040%=      5-min Rain = 0
KWE1 040211Z 19004KT 29/15 A2999 RMK A01 T02930146  RH  041%=      5-min Rain = 0
KWE1 040212Z 18004KT 29/15 A2999 RMK A01 T02930146  RH  041%=      5-min Rain = 0
KWE1 040213Z 18004KT 29/15 A2999 RMK A01 T02930145  RH  041%=      5-min Rain = 0
KWE1 040214Z 18004KT 29/15 A2999 RMK A01 T02920145  RH  041%=      5-min Rain = 0
KWE1 040215Z 18004KT 29/14 A2999 RMK A01 T02910144  RH  041%=      5-min Rain = 0
KWE1 040216Z 17004KT 29/14 A2999 RMK A01 T02900144  RH  041%=      5-min Rain = 0
KWE1 040217Z 17003KT 29/14 A2999 RMK A01 T02890144  RH  041%=      5-min Rain = 0
KWE1 040218Z 18003KT 29/14 A2999 RMK A01 T02890144  RH  041%=      5-min Rain = 0
KWE1 040219Z 19002KT 29/14 A2999 RMK A01 T02880144  RH  041%=      5-min Rain = 0
KWE1 040220Z 19003KT 29/14 A2999 RMK A01 T02870144  RH  042%=      5-min Rain = 0
KWE1 040221Z 19003KT 29/14 A2999 RMK A01 T02870144  RH  042%=      5-min Rain = 0
KWE1 040222Z 19003KT 29/14 A2999 RMK A01 T02870144  RH  042%=      5-min Rain = 0
KWE1 040223Z 19003KT 29/14 A2999 RMK A01 T02870144  RH  042%=      5-min Rain = 0
KWE1 040224Z 20003KT 29/14 A2999 RMK A01 T02870144  RH  042%=      5-min Rain = 0
KWE1 040225Z 20004KT 29/14 A2999 RMK A01 T02870144  RH  042%=      5-min Rain = 0
KWE1 040226Z 20004KT 29/15 A2999 RMK A01 T02870145  RH  042%=      5-min Rain = 0
KWE1 040227Z 19004KT 29/15 A2999 RMK A01 T02860145  RH  042%=      5-min Rain = 0
KWE1 040228Z 19004KT 29/15 A2999 RMK A01 T02860145  RH  042%=      5-min Rain = 0
KWE1 040229Z 19004KT 29/15 A30 RMK A01 T02860145  RH  042%=      5-min Rain = 0
KWE1 040230Z 19004KT 29/14 A30 RMK A01 T02850144  RH  042%=      5-min Rain = 0
KWE1 040231Z 19004KT 29/15 A30 RMK A01 T02850145  RH  042%=      5-min Rain = 0
KWE1 040232Z 19004KT 29/14 A30 RMK A01 T02850144  RH  042%=      5-min Rain = 0
KWE1 040233Z 19004KT 29/14 A30 RMK A01 T02850144  RH  042%=      5-min Rain = 0
KWE1 040234Z 19004KT 28/14 A30 RMK A01 T02840143  RH  042%=      5-min Rain = 0
KWE1 040235Z 19003KT 28/14 A30 RMK A01 T02840144  RH  042%=      5-min Rain = 0
KWE1 040236Z 19003KT 28/14 A30 RMK A01 T02830143  RH  042%=      5-min Rain = 0
KWE1 040237Z 19004KT 28/14 A30 RMK A01 T02830143  RH  042%=      5-min Rain = 0
KWE1 040238Z 19004KT 28/14 A30 RMK A01 T02830143  RH  042%=      5-min Rain = 0
KWE1 040239Z 19004KT 28/14 A30 RMK A01 T02830143  RH  042%=      5-min Rain = 0
KWE1 040240Z 19004KT 28/14 A30 RMK A01 T02820142  RH  042%=      5-min Rain = 0
KWE1 040241Z 18003KT 28/14 A30 RMK A01 T02820142  RH  042%=      5-min Rain = 0
KWE1 040242Z 18004KT 28/14 A30 RMK A01 T02800141  RH  043%=      5-min Rain = 0
KWE1 040243Z 19004KT 28/14 A30 RMK A01 T02800142  RH  043%=      5-min Rain = 0
KWE1 040244Z 19003KT 28/14 A30 RMK A01 T02790142  RH  043%=      5-min Rain = 0
KWE1 040245Z 20003KT 28/14 A30 RMK A01 T02790142  RH  043%=      5-min Rain = 0
KWE1 040246Z 20003KT 28/14 A30 RMK A01 T02790142  RH  043%=      5-min Rain = 0
KWE1 040247Z 19002KT 28/14 A30 RMK A01 T02790142  RH  043%=      5-min Rain = 0
KWE1 040248Z 18002KT 28/14 A30 RMK A01 T02780142  RH  043%=      5-min Rain = 0
KWE1 040249Z 18003KT 28/14 A3001 RMK A01 T02780141  RH  043%=      5-min Rain = 0
KWE1 040250Z 18003KT 28/14 A3001 RMK A01 T02780141  RH  043%=      5-min Rain = 0
KWE1 040251Z 18003KT 28/14 A3001 RMK A01 T02770140  RH  043%=      5-min Rain = 0
KWE1 040252Z 19003KT 28/14 A3001 RMK A01 T02760140  RH  043%=      5-min Rain = 0
KWE1 040253Z 19003KT 28/14 A3001 RMK A01 T02750139  RH  043%=      5-min Rain = 0
KWE1 040254Z 19003KT 27/14 A3001 RMK A01 T02740139  RH  043%=      5-min Rain = 0
KWE1 040255Z 20003KT 27/14 A3001 RMK A01 T02730140  RH  044%=      5-min Rain = 0
KWE1 040256Z 20003KT 27/14 A3001 RMK A01 T02730143  RH  045%=      5-min Rain = 0
KWE1 040257Z 21003KT 27/14 A3001 RMK A01 T02730142  RH  045%=      5-min Rain = 0
KWE1 040258Z 20004KT 27/14 A3001 RMK A01 T02730143  RH  045%=      5-min Rain = 0
KWE1 040259Z 21004KT 27/14 A3001 RMK A01 T02730143  RH  045%=      5-min Rain = 0
KWE1 040300Z 22004KT 27/14 A3001 RMK A01 T02730143  RH  045%=      5-min Rain = 0
KWE1 040301Z 22003KT 27/14 A3001 RMK A01 T02730144  RH  045%=      5-min Rain = 0
KWE1 040302Z 21004KT 27/14 A3001 RMK A01 T02730141  RH  044%=      5-min Rain = 0
KWE1 040303Z 21004KT 27/14 A3001 RMK A01 T02730141  RH  044%=      5-min Rain = 0
KWE1 040304Z 21005KT 27/14 A3002 RMK A01 T02720140  RH  044%=      5-min Rain = 0
KWE1 040305Z 21005KT 27/14 A3002 RMK A01 T02720142  RH  045%=      5-min Rain = 0
KWE1 040306Z 20006KT 27/14 A3002 RMK A01 T02720143  RH  045%=      5-min Rain = 0
KWE1 040307Z 21006KT 27/15 A3002 RMK A01 T02730145  RH  045%=      5-min Rain = 0
KWE1 040308Z 20006KT 28/15 A3002 RMK A01 T02750147  RH  046%=      5-min Rain = 0
KWE1 040309Z 20006KT 28/15 A3002 RMK A01 T02760149  RH  046%=      5-min Rain = 0
KWE1 040310Z 20006KT 28/15 A3002 RMK A01 T02780149  RH  045%=      5-min Rain = 0
KWE1 040311Z 20007KT 28/15 A3002 RMK A01 T02810150  RH  045%=      5-min Rain = 0
KWE1 040312Z 20007KT 28/15 A3002 RMK A01 T02820151  RH  045%=      5-min Rain = 0
KWE1 040313Z 21007KT 28/15 A3002 RMK A01 T02840153  RH  045%=      5-min Rain = 0
KWE1 040314Z 21006KT 29/15 A3002 RMK A01 T02850153  RH  045%=      5-min Rain = 0
KWE1 040315Z 21006KT 29/15 A3002 RMK A01 T02850154  RH  045%=      5-min Rain = 0
KWE1 040316Z 21006KT 29/15 A3002 RMK A01 T02850154  RH  045%=      5-min Rain = 0
KWE1 040317Z 21006KT 29/16 A3002 RMK A01 T02850155  RH  045%=      5-min Rain = 0
KWE1 040318Z 21006KT 29/16 A3002 RMK A01 T02850155  RH  045%=      5-min Rain = 0
KWE1 040319Z 20006KT 28/16 A3002 RMK A01 T02840155  RH  046%=      5-min Rain = 0
KWE1 040320Z 20007KT 28/16 A3002 RMK A01 T02840156  RH  046%=      5-min Rain = 0
KWE1 040321Z 20007KT 28/16 A3002 RMK A01 T02840155  RH  046%=      5-min Rain = 0
KWE1 040322Z 20006KT 28/16 A3003 RMK A01 T02840156  RH  046%=      5-min Rain = 0
KWE1 040323Z 20006KT 28/16 A3003 RMK A01 T02840157  RH  046%=      5-min Rain = 0
KWE1 040324Z 21006KT 28/16 A3003 RMK A01 T02840157  RH  046%=      5-min Rain = 0
KWE1 040325Z 21006KT 28/16 A3003 RMK A01 T02840157  RH  046%=      5-min Rain = 0
KWE1 040326Z 21006KT 28/16 A3003 RMK A01 T02840158  RH  046%=      5-min Rain = 0
KWE1 040327Z 21006KT 28/16 A3003 RMK A01 T02830158  RH  047%=      5-min Rain = 0
KWE1 040328Z 21006KT 28/16 A3003 RMK A01 T02820158  RH  047%=      5-min Rain = 0
KWE1 040329Z 21006KT 28/16 A3003 RMK A01 T02820158  RH  047%=      5-min Rain = 0
KWE1 040330Z 21005KT 28/16 A3003 RMK A01 T02810158  RH  047%=      5-min Rain = 0
KWE1 040331Z 21006KT 28/16 A3003 RMK A01 T02810158  RH  047%=      5-min Rain = 0
KWE1 040332Z 21005KT 28/16 A3003 RMK A01 T02810158  RH  047%=      5-min Rain = 0
KWE1 040333Z 21005KT 28/16 A3003 RMK A01 T02800158  RH  047%=      5-min Rain = 0
KWE1 040334Z 21004KT 28/16 A3004 RMK A01 T02800158  RH  048%=      5-min Rain = 0
KWE1 040335Z 21004KT 28/16 A3004 RMK A01 T02790157  RH  048%=      5-min Rain = 0
KWE1 040336Z 21004KT 28/16 A3004 RMK A01 T02780157  RH  048%=      5-min Rain = 0
KWE1 040337Z 21003KT 28/16 A3004 RMK A01 T02770157  RH  048%=      5-min Rain = 0
KWE1 040338Z 21002KT 28/16 A3004 RMK A01 T02770156  RH  048%=      5-min Rain = 0
KWE1 040339Z 22002KT 28/16 A3004 RMK A01 T02760156  RH  048%=      5-min Rain = 0
KWE1 040340Z 19001KT 28/16 A3004 RMK A01 T02760155  RH  048%=      5-min Rain = 0
KWE1 040341Z 03002KT 28/16 A3005 RMK A01 T02750156  RH  048%=      5-min Rain = 0
KWE1 040342Z 03007KT 27/16 A3005 RMK A01 T02730155  RH  049%=      5-min Rain = 0
KWE1 040343Z 04007KT 27/15 A3005 RMK A01 T02690153  RH  049%=      5-min Rain = 0
KWE1 040344Z 05008KT 27/15 A3005 RMK A01 T02670152  RH  049%=      5-min Rain = 0
KWE1 040345Z 05007KT 27/15 A3005 RMK A01 T02670151  RH  049%=      5-min Rain = 0
KWE1 040346Z 05005KT 27/15 A3005 RMK A01 T02690151  RH  048%=      5-min Rain = 0
KWE1 040347Z 05004KT 27/15 A3005 RMK A01 T02690151  RH  048%=      5-min Rain = 0
KWE1 040348Z 06005KT 27/15 A3005 RMK A01 T02700151  RH  048%=      5-min Rain = 0
KWE1 040349Z 06006KT 27/15 A3005 RMK A01 T02710152  RH  048%=      5-min Rain = 0
KWE1 040350Z 07006KT 27/15 A3005 RMK A01 T02720154  RH  048%=      5-min Rain = 0
KWE1 040351Z 08006KT 27/16 A3005 RMK A01 T02720155  RH  049%=      5-min Rain = 0
KWE1 040352Z 08004KT 27/16 A3005 RMK A01 T02720155  RH  049%=      5-min Rain = 0
KWE1 040353Z 08004KT 27/16 A3005 RMK A01 T02720156  RH  049%=      5-min Rain = 0
KWE1 040354Z 08003KT 27/16 A3005 RMK A01 T02710156  RH  049%=      5-min Rain = 0
KWE1 040355Z 08004KT 27/16 A3005 RMK A01 T02710157  RH  050%=      5-min Rain = 0
KWE1 040356Z 07004KT 27/16 A3005 RMK A01 T02700158  RH  050%=      5-min Rain = 0
KWE1 040357Z 05003KT 27/16 A3006 RMK A01 T02700159  RH  050%=      5-min Rain = 0
KWE1 040358Z 02002KT 27/16 A3005 RMK A01 T02700159  RH  051%=      5-min Rain = 0
KWE1 040359Z 02002KT 27/16 A3005 RMK A01 T02700159  RH  051%=      5-min Rain = 0
KWE1 040400Z 27001KT 27/16 A3005 RMK A01 T02700159  RH  051%=      5-min Rain = 0
KWE1 040401Z 23002KT 27/16 A3005 RMK A01 T02700159  RH  050%=      5-min Rain = 0
KWE1 040402Z 24004KT 27/16 A3005 RMK A01 T02710158  RH  050%=      5-min Rain = 0
KWE1 040403Z 24006KT 27/16 A3005 RMK A01 T02720157  RH  050%=      5-min Rain = 0
KWE1 040404Z 23005KT 27/16 A3005 RMK A01 T02720160  RH  050%=      5-min Rain = 0
KWE1 040405Z 23004KT 27/16 A3005 RMK A01 T02740161  RH  050%=      5-min Rain = 0
KWE1 040406Z 25003KT 28/16 A3005 RMK A01 T02770160  RH  049%=      5-min Rain = 0
KWE1 040407Z 26003KT 28/16 A3005 RMK A01 T02790160  RH  048%=      5-min Rain = 0
KWE1 040408Z 25002KT 28/16 A3005 RMK A01 T02800160  RH  048%=      5-min Rain = 0
KWE1 040409Z 22002KT 28/16 A3005 RMK A01 T02800160  RH  048%=      5-min Rain = 0
KWE1 040410Z 17004KT 28/16 A3005 RMK A01 T02790160  RH  048%=      5-min Rain = 0
KWE1 040411Z 16005KT 28/16 A3005 RMK A01 T02790160  RH  048%=      5-min Rain = 0
KWE1 040412Z 15004KT 28/16 A3005 RMK A01 T02790160  RH  048%=      5-min Rain = 0
KWE1 040413Z 15004KT 28/16 A3005 RMK A01 T02790160  RH  049%=      5-min Rain = 0
KWE1 040414Z 15003KT 28/16 A3005 RMK A01 T02770160  RH  049%=      5-min Rain = 0
KWE1 040415Z 10003KT 28/16 A3005 RMK A01 T02770160  RH  049%=      5-min Rain = 0
KWE1 040416Z 05004KT 28/16 A3005 RMK A01 T02760160  RH  049%=      5-min Rain = 0
KWE1 040417Z 02005KT 27/16 A3005 RMK A01 T02740159  RH  050%=      5-min Rain = 0
KWE1 040418Z 02004KT 27/16 A3005 RMK A01 T02720159  RH  050%=      5-min Rain = 0
KWE1 040419Z 03003KT 27/16 A3005 RMK A01 T02700161  RH  051%=      5-min Rain = 0
KWE1 040420Z 04001KT 27/16 A3005 RMK A01 T02680162  RH  052%=      5-min Rain = 0
KWE1 040421Z 07001KT 27/16 A3005 RMK A01 T02680162  RH  052%=      5-min Rain = 0
KWE1 040422Z 06003KT 27/16 A3005 RMK A01 T02660161  RH  052%=      5-min Rain = 0
KWE1 040423Z 06004KT 27/16 A3005 RMK A01 T02660162  RH  053%=      5-min Rain = 0
KWE1 040424Z 06003KT 27/16 A3005 RMK A01 T02660164  RH  054%=      5-min Rain = 0
KWE1 040425Z 06004KT 27/17 A3005 RMK A01 T02660165  RH  054%=      5-min Rain = 0
KWE1 040426Z 08004KT 27/17 A3005 RMK A01 T02660165  RH  054%=      5-min Rain = 0
KWE1 040427Z 10004KT 27/16 A3005 RMK A01 T02660164  RH  053%=      5-min Rain = 0
KWE1 040428Z 11003KT 27/16 A3005 RMK A01 T02670164  RH  053%=      5-min Rain = 0
KWE1 040429Z 12004KT 27/16 A3005 RMK A01 T02670164  RH  053%=      5-min Rain = 0
KWE1 040430Z 11003KT 27/16 A3005 RMK A01 T02670163  RH  053%=      5-min Rain = 0
KWE1 040431Z 10003KT 27/16 A3005 RMK A01 T02670163  RH  053%=      5-min Rain = 0
KWE1 040432Z 10004KT 27/16 A3006 RMK A01 T02670162  RH  053%=      5-min Rain = 0
KWE1 040433Z 10005KT 27/16 A3006 RMK A01 T02670162  RH  052%=      5-min Rain = 0
KWE1 040434Z 11005KT 27/16 A3006 RMK A01 T02680160  RH  052%=      5-min Rain = 0
KWE1 040435Z 12004KT 27/16 A3005 RMK A01 T02690158  RH  050%=      5-min Rain = 0
KWE1 040436Z 13004KT 27/16 A3005 RMK A01 T02700158  RH  050%=      5-min Rain = 0
KWE1 040437Z 14004KT 27/16 A3005 RMK A01 T02700156  RH  050%=      5-min Rain = 0
KWE1 040438Z 16004KT 27/16 A3005 RMK A01 T02700155  RH  049%=      5-min Rain = 0
KWE1 040439Z 17004KT 27/16 A3005 RMK A01 T02710155  RH  049%=      5-min Rain = 0
KWE1 040440Z 18004KT 27/15 A3005 RMK A01 T02700154  RH  049%=      5-min Rain = 0
KWE1 040441Z 20003KT 27/15 A3005 RMK A01 T02700154  RH  049%=      5-min Rain = 0
KWE1 040442Z 20004KT 27/15 A3005 RMK A01 T02690154  RH  049%=      5-min Rain = 0
KWE1 040443Z 20004KT 27/16 A3005 RMK A01 T02670155  RH  050%=      5-min Rain = 0
KWE1 040444Z 18004KT 27/16 A3005 RMK A01 T02660155  RH  050%=      5-min Rain = 0
KWE1 040445Z 19004KT 27/15 A3005 RMK A01 T02660153  RH  050%=      5-min Rain = 0
KWE1 040446Z 18005KT 27/15 A3005 RMK A01 T02680154  RH  049%=      5-min Rain = 0
KWE1 040447Z 18005KT 27/15 A3005 RMK A01 T02700154  RH  049%=      5-min Rain = 0
KWE1 040448Z 18005KT 27/15 A3005 RMK A01 T02710153  RH  049%=      5-min Rain = 0
KWE1 040449Z 17005KT 27/15 A3005 RMK A01 T02710152  RH  048%=      5-min Rain = 0
KWE1 040450Z 17005KT 27/15 A3005 RMK A01 T02700153  RH  049%=      5-min Rain = 0
KWE1 040451Z 18004KT 27/15 A3005 RMK A01 T02690153  RH  049%=      5-min Rain = 0
KWE1 040452Z 18005KT 27/15 A3005 RMK A01 T02670150  RH  049%=      5-min Rain = 0
KWE1 040453Z 18006KT 27/15 A3005 RMK A01 T02670149  RH  048%=      5-min Rain = 0
KWE1 040454Z 18006KT 27/15 A3005 RMK A01 T02660147  RH  048%=      5-min Rain = 0
KWE1 040455Z 17006KT 27/15 A3005 RMK A01 T02660147  RH  048%=      5-min Rain = 0
KWE1 040456Z 16006KT 27/15 A3005 RMK A01 T02660146  RH  048%=      5-min Rain = 0
KWE1 040457Z 16006KT 27/15 A3005 RMK A01 T02650146  RH  048%=      5-min Rain = 0
KWE1 040458Z 16006KT 26/15 A3005 RMK A01 T02640146  RH  048%=      5-min Rain = 0
KWE1 040459Z 16006KT 26/15 A3005 RMK A01 T02640146  RH  048%=      5-min Rain = 0

Page generated in 0.1196 seconds.